<?xml version="1.0" encoding="UTF-8"?>
<gpx version="1.1" creator="2bulu-scraper" xmlns="http://www.topografix.com/GPX/1/1">
  <metadata><name>泸州泸县道林沟</name><desc>source: 2bulu.com trackId=73656026; exported 2026-09-01T14:50:40.454Z</desc>
    <bounds minlat="29.2456701" minlon="105.5146083" maxlat="29.2722831" maxlon="105.5438499"/>
    <link href="https://www.2bulu.com/track/t-gNVVCv041XHp%252FR2KBg5Tzw%253D%253D.htm"><text>2bulu 源页面</text></link>
  </metadata>

  <trk><name>泸州泸县道林沟</name>
      <trkseg>
        <trkpt lat="29.2457617" lon="105.5402"><ele>257.4</ele><time>2025-10-14T18:22:14.000Z</time></trkpt>
        <trkpt lat="29.2458653" lon="105.5400674"><ele>257.4</ele><time>2025-10-14T18:22:34.000Z</time></trkpt>
        <trkpt lat="29.2459537" lon="105.5399895"><ele>257.7</ele><time>2025-10-14T18:22:44.000Z</time></trkpt>
        <trkpt lat="29.2460055" lon="105.5399232"><ele>258.47</ele><time>2025-10-14T18:22:54.000Z</time></trkpt>
        <trkpt lat="29.2460783" lon="105.5398877"><ele>259.82</ele><time>2025-10-14T18:23:10.000Z</time></trkpt>
        <trkpt lat="29.2461636" lon="105.5398827"><ele>263.04</ele><time>2025-10-14T18:23:24.000Z</time></trkpt>
        <trkpt lat="29.2462466" lon="105.5398491"><ele>266.33</ele><time>2025-10-14T18:23:42.000Z</time></trkpt>
        <trkpt lat="29.2463136" lon="105.539784"><ele>268.3</ele><time>2025-10-14T18:23:58.000Z</time></trkpt>
        <trkpt lat="29.2463823" lon="105.5397088"><ele>270.79</ele><time>2025-10-14T18:24:14.000Z</time></trkpt>
        <trkpt lat="29.2464637" lon="105.5396588"><ele>272.86</ele><time>2025-10-14T18:24:32.000Z</time></trkpt>
        <trkpt lat="29.2465526" lon="105.5396104"><ele>274.56</ele><time>2025-10-14T18:25:08.000Z</time></trkpt>
        <trkpt lat="29.2466312" lon="105.5395481"><ele>277.2</ele><time>2025-10-14T18:25:28.000Z</time></trkpt>
        <trkpt lat="29.2467105" lon="105.5394877"><ele>279.65</ele><time>2025-10-14T18:25:44.000Z</time></trkpt>
        <trkpt lat="29.2467901" lon="105.539431"><ele>281.56</ele><time>2025-10-14T18:26:02.000Z</time></trkpt>
        <trkpt lat="29.2468838" lon="105.5394271"><ele>284.2</ele><time>2025-10-14T18:26:16.000Z</time></trkpt>
        <trkpt lat="29.2469863" lon="105.5394237"><ele>286.74</ele><time>2025-10-14T18:26:26.000Z</time></trkpt>
        <trkpt lat="29.2470763" lon="105.5393949"><ele>288.57</ele><time>2025-10-14T18:26:34.000Z</time></trkpt>
        <trkpt lat="29.2471683" lon="105.5393916"><ele>288.2</ele><time>2025-10-14T18:26:48.000Z</time></trkpt>
        <trkpt lat="29.2472538" lon="105.5393481"><ele>288.5</ele><time>2025-10-14T18:27:02.000Z</time></trkpt>
        <trkpt lat="29.247372" lon="105.5392938"><ele>290.35</ele><time>2025-10-14T18:27:58.000Z</time></trkpt>
        <trkpt lat="29.2474486" lon="105.5392045"><ele>294.24</ele><time>2025-10-14T18:28:14.000Z</time></trkpt>
        <trkpt lat="29.2475122" lon="105.5391103"><ele>295.34</ele><time>2025-10-14T18:28:52.000Z</time></trkpt>
        <trkpt lat="29.2475662" lon="105.5390093"><ele>294.29</ele><time>2025-10-14T18:29:04.000Z</time></trkpt>
        <trkpt lat="29.2476132" lon="105.5389026"><ele>292.49</ele><time>2025-10-14T18:29:12.000Z</time></trkpt>
        <trkpt lat="29.2476439" lon="105.5387976"><ele>291.29</ele><time>2025-10-14T18:29:20.000Z</time></trkpt>
        <trkpt lat="29.2476646" lon="105.5386879"><ele>291.08</ele><time>2025-10-14T18:29:30.000Z</time></trkpt>
        <trkpt lat="29.2476632" lon="105.5385645"><ele>293.63</ele><time>2025-10-14T18:29:42.000Z</time></trkpt>
        <trkpt lat="29.2476613" lon="105.5384464"><ele>295.55</ele><time>2025-10-14T18:30:00.000Z</time></trkpt>
        <trkpt lat="29.2476498" lon="105.5383239"><ele>297.89</ele><time>2025-10-14T18:30:14.000Z</time></trkpt>
        <trkpt lat="29.247651" lon="105.53821"><ele>301.12</ele><time>2025-10-14T18:30:26.000Z</time></trkpt>
        <trkpt lat="29.2477191" lon="105.5381672"><ele>303.26</ele><time>2025-10-14T18:30:44.000Z</time></trkpt>
        <trkpt lat="29.2478166" lon="105.5381389"><ele>305.69</ele><time>2025-10-14T18:31:04.000Z</time></trkpt>
        <trkpt lat="29.2479149" lon="105.5381694"><ele>307.2</ele><time>2025-10-14T18:31:16.000Z</time></trkpt>
        <trkpt lat="29.2479773" lon="105.5382561"><ele>310.21</ele><time>2025-10-14T18:31:36.000Z</time></trkpt>
        <trkpt lat="29.2480084" lon="105.5383735"><ele>314.25</ele><time>2025-10-14T18:31:48.000Z</time></trkpt>
        <trkpt lat="29.2480702" lon="105.5384539"><ele>317.58</ele><time>2025-10-14T18:32:02.000Z</time></trkpt>
        <trkpt lat="29.2481431" lon="105.5384273"><ele>320.86</ele><time>2025-10-14T18:32:20.000Z</time></trkpt>
        <trkpt lat="29.2482244" lon="105.5383661"><ele>321.31</ele><time>2025-10-14T18:32:42.000Z</time></trkpt>
        <trkpt lat="29.2483105" lon="105.5383055"><ele>322.21</ele><time>2025-10-14T18:33:02.000Z</time></trkpt>
        <trkpt lat="29.248381" lon="105.5382286"><ele>323.37</ele><time>2025-10-14T18:33:18.000Z</time></trkpt>
        <trkpt lat="29.248474" lon="105.5381383"><ele>325.27</ele><time>2025-10-14T18:33:42.000Z</time></trkpt>
        <trkpt lat="29.2484805" lon="105.5380354"><ele>328.86</ele><time>2025-10-14T18:34:20.000Z</time></trkpt>
        <trkpt lat="29.2485117" lon="105.53812"><ele>334.08</ele><time>2025-10-14T18:35:36.000Z</time></trkpt>
        <trkpt lat="29.2485967" lon="105.5381533"><ele>336.71</ele><time>2025-10-14T18:35:48.000Z</time></trkpt>
        <trkpt lat="29.2486958" lon="105.5381387"><ele>338.17</ele><time>2025-10-14T18:36:02.000Z</time></trkpt>
        <trkpt lat="29.2487549" lon="105.5380577"><ele>341.06</ele><time>2025-10-14T18:36:18.000Z</time></trkpt>
        <trkpt lat="29.2487929" lon="105.5379582"><ele>343.32</ele><time>2025-10-14T18:36:32.000Z</time></trkpt>
        <trkpt lat="29.2488229" lon="105.537851"><ele>344.73</ele><time>2025-10-14T18:36:54.000Z</time></trkpt>
        <trkpt lat="29.2488471" lon="105.5377416"><ele>345.66</ele><time>2025-10-14T18:37:08.000Z</time></trkpt>
        <trkpt lat="29.2488456" lon="105.5376339"><ele>346.75</ele><time>2025-10-14T18:37:20.000Z</time></trkpt>
        <trkpt lat="29.2488346" lon="105.5375231"><ele>347.76</ele><time>2025-10-14T18:37:32.000Z</time></trkpt>
        <trkpt lat="29.2488673" lon="105.5374281"><ele>347.35</ele><time>2025-10-14T18:37:54.000Z</time></trkpt>
        <trkpt lat="29.2489076" lon="105.5373306"><ele>346.38</ele><time>2025-10-14T18:38:08.000Z</time></trkpt>
        <trkpt lat="29.2489502" lon="105.5372316"><ele>346.39</ele><time>2025-10-14T18:38:18.000Z</time></trkpt>
        <trkpt lat="29.2490139" lon="105.5371356"><ele>348.46</ele><time>2025-10-14T18:38:28.000Z</time></trkpt>
        <trkpt lat="29.2490906" lon="105.5370558"><ele>349.38</ele><time>2025-10-14T18:38:40.000Z</time></trkpt>
        <trkpt lat="29.2491669" lon="105.5369817"><ele>349.86</ele><time>2025-10-14T18:38:48.000Z</time></trkpt>
        <trkpt lat="29.2492351" lon="105.5368911"><ele>349.92</ele><time>2025-10-14T18:38:58.000Z</time></trkpt>
        <trkpt lat="29.2492821" lon="105.5367937"><ele>349.7</ele><time>2025-10-14T18:39:06.000Z</time></trkpt>
        <trkpt lat="29.2493226" lon="105.5366893"><ele>349.78</ele><time>2025-10-14T18:39:16.000Z</time></trkpt>
        <trkpt lat="29.2493318" lon="105.5365792"><ele>349.92</ele><time>2025-10-14T18:39:26.000Z</time></trkpt>
        <trkpt lat="29.2493081" lon="105.5364652"><ele>348.66</ele><time>2025-10-14T18:39:50.000Z</time></trkpt>
        <trkpt lat="29.2493496" lon="105.536388"><ele>348.03</ele><time>2025-10-14T18:40:32.000Z</time></trkpt>
        <trkpt lat="29.2494483" lon="105.5363667"><ele>347.25</ele><time>2025-10-14T18:41:56.000Z</time></trkpt>
        <trkpt lat="29.2495417" lon="105.536415"><ele>348.17</ele><time>2025-10-14T18:42:08.000Z</time></trkpt>
        <trkpt lat="29.2496378" lon="105.5364253"><ele>347.07</ele><time>2025-10-14T18:42:28.000Z</time></trkpt>
        <trkpt lat="29.2497306" lon="105.5364249"><ele>347.38</ele><time>2025-10-14T18:42:36.000Z</time></trkpt>
        <trkpt lat="29.2498224" lon="105.536401"><ele>347.17</ele><time>2025-10-14T18:42:44.000Z</time></trkpt>
        <trkpt lat="29.2499026" lon="105.5363419"><ele>346.71</ele><time>2025-10-14T18:42:52.000Z</time></trkpt>
        <trkpt lat="29.2499961" lon="105.5362818"><ele>346.62</ele><time>2025-10-14T18:43:02.000Z</time></trkpt>
        <trkpt lat="29.2500264" lon="105.5362433"><ele>346.91</ele><time>2025-10-14T18:43:18.000Z</time></trkpt>
        <trkpt lat="29.2501009" lon="105.536213"><ele>346.95</ele><time>2025-10-14T18:43:30.000Z</time></trkpt>
        <trkpt lat="29.2501309" lon="105.5361229"><ele>344.61</ele><time>2025-10-14T18:43:40.000Z</time></trkpt>
        <trkpt lat="29.2502203" lon="105.5360754"><ele>344.47</ele><time>2025-10-14T18:43:48.000Z</time></trkpt>
        <trkpt lat="29.2503148" lon="105.5360439"><ele>345.09</ele><time>2025-10-14T18:43:56.000Z</time></trkpt>
        <trkpt lat="29.2504114" lon="105.5360263"><ele>346</ele><time>2025-10-14T18:44:02.000Z</time></trkpt>
        <trkpt lat="29.2505149" lon="105.5360175"><ele>347.16</ele><time>2025-10-14T18:44:14.000Z</time></trkpt>
        <trkpt lat="29.2506213" lon="105.5360079"><ele>349.28</ele><time>2025-10-14T18:44:24.000Z</time></trkpt>
        <trkpt lat="29.2507117" lon="105.535958"><ele>350.54</ele><time>2025-10-14T18:44:34.000Z</time></trkpt>
        <trkpt lat="29.2507493" lon="105.5358665"><ele>351.6</ele><time>2025-10-14T18:44:48.000Z</time></trkpt>
        <trkpt lat="29.2507819" lon="105.5357654"><ele>352.37</ele><time>2025-10-14T18:45:02.000Z</time></trkpt>
        <trkpt lat="29.2508559" lon="105.5356978"><ele>351.87</ele><time>2025-10-14T18:45:12.000Z</time></trkpt>
        <trkpt lat="29.2509496" lon="105.5356473"><ele>350.94</ele><time>2025-10-14T18:45:22.000Z</time></trkpt>
        <trkpt lat="29.2510404" lon="105.5356062"><ele>350.96</ele><time>2025-10-14T18:45:30.000Z</time></trkpt>
        <trkpt lat="29.2511197" lon="105.5355371"><ele>349.69</ele><time>2025-10-14T18:45:44.000Z</time></trkpt>
        <trkpt lat="29.2511978" lon="105.5354729"><ele>351.76</ele><time>2025-10-14T18:45:56.000Z</time></trkpt>
        <trkpt lat="29.2512694" lon="105.5354052"><ele>354.66</ele><time>2025-10-14T18:46:10.000Z</time></trkpt>
        <trkpt lat="29.2513589" lon="105.5353626"><ele>357.26</ele><time>2025-10-14T18:46:22.000Z</time></trkpt>
        <trkpt lat="29.2514503" lon="105.5352946"><ele>359.34</ele><time>2025-10-14T18:46:36.000Z</time></trkpt>
        <trkpt lat="29.2515154" lon="105.5352009"><ele>361.82</ele><time>2025-10-14T18:46:48.000Z</time></trkpt>
        <trkpt lat="29.2515679" lon="105.5351049"><ele>365.12</ele><time>2025-10-14T18:46:58.000Z</time></trkpt>
        <trkpt lat="29.2516158" lon="105.5350123"><ele>368.98</ele><time>2025-10-14T18:47:08.000Z</time></trkpt>
        <trkpt lat="29.2516857" lon="105.5349347"><ele>370.67</ele><time>2025-10-14T18:47:16.000Z</time></trkpt>
        <trkpt lat="29.2517622" lon="105.5348603"><ele>369.48</ele><time>2025-10-14T18:47:32.000Z</time></trkpt>
        <trkpt lat="29.2518529" lon="105.5348116"><ele>366.18</ele><time>2025-10-14T18:47:40.000Z</time></trkpt>
        <trkpt lat="29.2518955" lon="105.5347216"><ele>363.52</ele><time>2025-10-14T18:47:52.000Z</time></trkpt>
        <trkpt lat="29.2519594" lon="105.53463"><ele>364.72</ele><time>2025-10-14T18:48:00.000Z</time></trkpt>
        <trkpt lat="29.2520431" lon="105.5345967"><ele>365.44</ele><time>2025-10-14T18:48:10.000Z</time></trkpt>
        <trkpt lat="29.2521177" lon="105.5345291"><ele>366.46</ele><time>2025-10-14T18:48:22.000Z</time></trkpt>
        <trkpt lat="29.2521465" lon="105.5344326"><ele>367.89</ele><time>2025-10-14T18:48:32.000Z</time></trkpt>
        <trkpt lat="29.252206" lon="105.5343546"><ele>368.67</ele><time>2025-10-14T18:48:44.000Z</time></trkpt>
        <trkpt lat="29.2522692" lon="105.5342665"><ele>370.19</ele><time>2025-10-14T18:48:58.000Z</time></trkpt>
        <trkpt lat="29.2523371" lon="105.5341834"><ele>372.56</ele><time>2025-10-14T18:49:12.000Z</time></trkpt>
        <trkpt lat="29.2523964" lon="105.5340788"><ele>374.08</ele><time>2025-10-14T18:49:24.000Z</time></trkpt>
        <trkpt lat="29.2524582" lon="105.5339902"><ele>376.07</ele><time>2025-10-14T18:49:36.000Z</time></trkpt>
        <trkpt lat="29.2525262" lon="105.5339085"><ele>377.46</ele><time>2025-10-14T18:49:52.000Z</time></trkpt>
        <trkpt lat="29.2526127" lon="105.5339069"><ele>378.51</ele><time>2025-10-14T18:50:04.000Z</time></trkpt>
        <trkpt lat="29.2527107" lon="105.5339402"><ele>380.31</ele><time>2025-10-14T18:50:12.000Z</time></trkpt>
        <trkpt lat="29.2528116" lon="105.5339553"><ele>380.99</ele><time>2025-10-14T18:50:24.000Z</time></trkpt>
        <trkpt lat="29.2529074" lon="105.5339932"><ele>380.52</ele><time>2025-10-14T18:50:36.000Z</time></trkpt>
        <trkpt lat="29.2529954" lon="105.5340381"><ele>378.53</ele><time>2025-10-14T18:50:46.000Z</time></trkpt>
        <trkpt lat="29.2530879" lon="105.5340999"><ele>376.67</ele><time>2025-10-14T18:51:00.000Z</time></trkpt>
        <trkpt lat="29.25319" lon="105.53409"><ele>376.98</ele><time>2025-10-14T18:51:16.000Z</time></trkpt>
        <trkpt lat="29.2532842" lon="105.534031"><ele>378.67</ele><time>2025-10-14T18:51:32.000Z</time></trkpt>
        <trkpt lat="29.2533574" lon="105.5339508"><ele>378.04</ele><time>2025-10-14T18:51:44.000Z</time></trkpt>
        <trkpt lat="29.2534156" lon="105.5338584"><ele>378.15</ele><time>2025-10-14T18:51:56.000Z</time></trkpt>
        <trkpt lat="29.2534945" lon="105.5337725"><ele>378.39</ele><time>2025-10-14T18:52:06.000Z</time></trkpt>
        <trkpt lat="29.25357" lon="105.5337003"><ele>378.52</ele><time>2025-10-14T18:52:16.000Z</time></trkpt>
        <trkpt lat="29.2536276" lon="105.5336077"><ele>378.81</ele><time>2025-10-14T18:52:26.000Z</time></trkpt>
        <trkpt lat="29.2536536" lon="105.5335061"><ele>378.68</ele><time>2025-10-14T18:52:40.000Z</time></trkpt>
        <trkpt lat="29.2536365" lon="105.5333873"><ele>379.59</ele><time>2025-10-14T18:52:58.000Z</time></trkpt>
        <trkpt lat="29.2535858" lon="105.5332782"><ele>382.3</ele><time>2025-10-14T18:53:14.000Z</time></trkpt>
        <trkpt lat="29.2535365" lon="105.5331754"><ele>383.46</ele><time>2025-10-14T18:53:26.000Z</time></trkpt>
        <trkpt lat="29.2534613" lon="105.5330889"><ele>385.72</ele><time>2025-10-14T18:53:40.000Z</time></trkpt>
        <trkpt lat="29.2533824" lon="105.5330182"><ele>387.17</ele><time>2025-10-14T18:53:50.000Z</time></trkpt>
        <trkpt lat="29.253312" lon="105.532931"><ele>387.92</ele><time>2025-10-14T18:54:10.000Z</time></trkpt>
        <trkpt lat="29.253285" lon="105.53282"><ele>388.47</ele><time>2025-10-14T18:54:22.000Z</time></trkpt>
        <trkpt lat="29.2533043" lon="105.5327156"><ele>386.93</ele><time>2025-10-14T18:54:34.000Z</time></trkpt>
        <trkpt lat="29.253307" lon="105.5326087"><ele>384.85</ele><time>2025-10-14T18:54:44.000Z</time></trkpt>
        <trkpt lat="29.253266" lon="105.5325225"><ele>382.25</ele><time>2025-10-14T18:54:52.000Z</time></trkpt>
        <trkpt lat="29.2532157" lon="105.5324168"><ele>379.09</ele><time>2025-10-14T18:55:00.000Z</time></trkpt>
        <trkpt lat="29.2531874" lon="105.5323078"><ele>378.79</ele><time>2025-10-14T18:55:08.000Z</time></trkpt>
        <trkpt lat="29.2531926" lon="105.5321884"><ele>379.23</ele><time>2025-10-14T18:55:20.000Z</time></trkpt>
        <trkpt lat="29.2532058" lon="105.5320517"><ele>382.83</ele><time>2025-10-14T18:55:30.000Z</time></trkpt>
        <trkpt lat="29.2532474" lon="105.5319371"><ele>387.55</ele><time>2025-10-14T18:55:40.000Z</time></trkpt>
        <trkpt lat="29.2533153" lon="105.5318458"><ele>392.3</ele><time>2025-10-14T18:55:48.000Z</time></trkpt>
        <trkpt lat="29.2534031" lon="105.5317587"><ele>395.74</ele><time>2025-10-14T18:55:58.000Z</time></trkpt>
        <trkpt lat="29.2534616" lon="105.5316529"><ele>397.83</ele><time>2025-10-14T18:56:08.000Z</time></trkpt>
        <trkpt lat="29.2534969" lon="105.5315504"><ele>396.31</ele><time>2025-10-14T18:56:22.000Z</time></trkpt>
        <trkpt lat="29.2535014" lon="105.5314434"><ele>393.25</ele><time>2025-10-14T18:56:34.000Z</time></trkpt>
        <trkpt lat="29.2535524" lon="105.5313648"><ele>389.96</ele><time>2025-10-14T18:56:46.000Z</time></trkpt>
        <trkpt lat="29.2536329" lon="105.5313007"><ele>388.43</ele><time>2025-10-14T18:57:02.000Z</time></trkpt>
        <trkpt lat="29.2537291" lon="105.5313043"><ele>387.86</ele><time>2025-10-14T18:57:16.000Z</time></trkpt>
        <trkpt lat="29.2538276" lon="105.5312823"><ele>389.42</ele><time>2025-10-14T18:57:32.000Z</time></trkpt>
        <trkpt lat="29.2538935" lon="105.5312088"><ele>392.47</ele><time>2025-10-14T18:57:42.000Z</time></trkpt>
        <trkpt lat="29.2539325" lon="105.5311055"><ele>393.82</ele><time>2025-10-14T18:57:58.000Z</time></trkpt>
        <trkpt lat="29.2539378" lon="105.5309861"><ele>395.14</ele><time>2025-10-14T18:58:16.000Z</time></trkpt>
        <trkpt lat="29.2539404" lon="105.5308687"><ele>396.97</ele><time>2025-10-14T18:58:34.000Z</time></trkpt>
        <trkpt lat="29.2539937" lon="105.5307857"><ele>401.42</ele><time>2025-10-14T18:58:48.000Z</time></trkpt>
        <trkpt lat="29.2540635" lon="105.5307039"><ele>403.95</ele><time>2025-10-14T18:59:00.000Z</time></trkpt>
        <trkpt lat="29.2541012" lon="105.53061"><ele>406.25</ele><time>2025-10-14T18:59:14.000Z</time></trkpt>
        <trkpt lat="29.2541253" lon="105.5305084"><ele>407.52</ele><time>2025-10-14T18:59:26.000Z</time></trkpt>
        <trkpt lat="29.2541639" lon="105.5304068"><ele>408.16</ele><time>2025-10-14T18:59:42.000Z</time></trkpt>
        <trkpt lat="29.2542202" lon="105.5303158"><ele>408.99</ele><time>2025-10-14T18:59:56.000Z</time></trkpt>
        <trkpt lat="29.2542553" lon="105.5302089"><ele>410.37</ele><time>2025-10-14T19:00:06.000Z</time></trkpt>
        <trkpt lat="29.2543015" lon="105.5301083"><ele>412.19</ele><time>2025-10-14T19:00:16.000Z</time></trkpt>
        <trkpt lat="29.2542911" lon="105.5299969"><ele>413.61</ele><time>2025-10-14T19:00:34.000Z</time></trkpt>
        <trkpt lat="29.2542622" lon="105.5298941"><ele>416.28</ele><time>2025-10-14T19:00:48.000Z</time></trkpt>
        <trkpt lat="29.2542107" lon="105.5297962"><ele>419.04</ele><time>2025-10-14T19:01:02.000Z</time></trkpt>
        <trkpt lat="29.2541423" lon="105.5297125"><ele>420.57</ele><time>2025-10-14T19:01:20.000Z</time></trkpt>
        <trkpt lat="29.2540352" lon="105.5296787"><ele>421.1</ele><time>2025-10-14T19:01:32.000Z</time></trkpt>
        <trkpt lat="29.2539313" lon="105.529696"><ele>419.77</ele><time>2025-10-14T19:01:44.000Z</time></trkpt>
        <trkpt lat="29.253832" lon="105.529725"><ele>417.89</ele><time>2025-10-14T19:02:00.000Z</time></trkpt>
        <trkpt lat="29.2538749" lon="105.5296961"><ele>418.58</ele><time>2025-10-14T19:02:36.000Z</time></trkpt>
        <trkpt lat="29.2539753" lon="105.5296655"><ele>422.85</ele><time>2025-10-14T19:02:48.000Z</time></trkpt>
        <trkpt lat="29.2540831" lon="105.5296385"><ele>424.85</ele><time>2025-10-14T19:02:58.000Z</time></trkpt>
        <trkpt lat="29.2541889" lon="105.5296035"><ele>426.63</ele><time>2025-10-14T19:03:08.000Z</time></trkpt>
        <trkpt lat="29.2542949" lon="105.5295711"><ele>427.87</ele><time>2025-10-14T19:03:18.000Z</time></trkpt>
        <trkpt lat="29.2544037" lon="105.5295451"><ele>428.83</ele><time>2025-10-14T19:03:28.000Z</time></trkpt>
        <trkpt lat="29.2545101" lon="105.5295116"><ele>429.76</ele><time>2025-10-14T19:03:38.000Z</time></trkpt>
        <trkpt lat="29.2546147" lon="105.5294815"><ele>429.91</ele><time>2025-10-14T19:03:48.000Z</time></trkpt>
        <trkpt lat="29.2546721" lon="105.5294014"><ele>429.82</ele><time>2025-10-14T19:04:04.000Z</time></trkpt>
        <trkpt lat="29.2546847" lon="105.5292968"><ele>430.11</ele><time>2025-10-14T19:04:20.000Z</time></trkpt>
        <trkpt lat="29.2547311" lon="105.5291998"><ele>431.14</ele><time>2025-10-14T19:04:32.000Z</time></trkpt>
        <trkpt lat="29.2548073" lon="105.5291483"><ele>431.81</ele><time>2025-10-14T19:04:46.000Z</time></trkpt>
        <trkpt lat="29.2548909" lon="105.5291021"><ele>432.49</ele><time>2025-10-14T19:05:00.000Z</time></trkpt>
        <trkpt lat="29.2549832" lon="105.5290946"><ele>433.27</ele><time>2025-10-14T19:05:08.000Z</time></trkpt>
        <trkpt lat="29.2550874" lon="105.529085"><ele>434.49</ele><time>2025-10-14T19:05:32.000Z</time></trkpt>
        <trkpt lat="29.2551724" lon="105.5290342"><ele>438.84</ele><time>2025-10-14T19:05:44.000Z</time></trkpt>
        <trkpt lat="29.255264" lon="105.5290196"><ele>441.92</ele><time>2025-10-14T19:05:58.000Z</time></trkpt>
        <trkpt lat="29.2553585" lon="105.5290134"><ele>441.74</ele><time>2025-10-14T19:06:10.000Z</time></trkpt>
        <trkpt lat="29.2554452" lon="105.5289829"><ele>440.6</ele><time>2025-10-14T19:06:22.000Z</time></trkpt>
        <trkpt lat="29.2555349" lon="105.5289975"><ele>440.6</ele><time>2025-10-14T19:06:30.000Z</time></trkpt>
        <trkpt lat="29.2556249" lon="105.5290193"><ele>439.1</ele><time>2025-10-14T19:06:40.000Z</time></trkpt>
        <trkpt lat="29.2557262" lon="105.5290191"><ele>437.29</ele><time>2025-10-14T19:06:50.000Z</time></trkpt>
        <trkpt lat="29.2558241" lon="105.5289882"><ele>435.7</ele><time>2025-10-14T19:07:00.000Z</time></trkpt>
        <trkpt lat="29.2559151" lon="105.5290253"><ele>436.26</ele><time>2025-10-14T19:07:20.000Z</time></trkpt>
        <trkpt lat="29.2559985" lon="105.5290916"><ele>435.8</ele><time>2025-10-14T19:07:32.000Z</time></trkpt>
        <trkpt lat="29.2560981" lon="105.5291121"><ele>435.85</ele><time>2025-10-14T19:07:48.000Z</time></trkpt>
        <trkpt lat="29.256198" lon="105.5291115"><ele>435.96</ele><time>2025-10-14T19:07:52.000Z</time></trkpt>
        <trkpt lat="29.2562724" lon="105.5290453"><ele>434.04</ele><time>2025-10-14T19:08:06.000Z</time></trkpt>
        <trkpt lat="29.2563559" lon="105.5290656"><ele>430.97</ele><time>2025-10-14T19:08:32.000Z</time></trkpt>
        <trkpt lat="29.2564477" lon="105.5290695"><ele>428.7</ele><time>2025-10-14T19:08:42.000Z</time></trkpt>
        <trkpt lat="29.2565402" lon="105.5290437"><ele>428.49</ele><time>2025-10-14T19:08:56.000Z</time></trkpt>
        <trkpt lat="29.2566289" lon="105.5290555"><ele>429.31</ele><time>2025-10-14T19:09:04.000Z</time></trkpt>
        <trkpt lat="29.2567058" lon="105.5291263"><ele>429.74</ele><time>2025-10-14T19:09:14.000Z</time></trkpt>
        <trkpt lat="29.2567748" lon="105.5292136"><ele>429.46</ele><time>2025-10-14T19:09:24.000Z</time></trkpt>
        <trkpt lat="29.2568804" lon="105.5292392"><ele>429.13</ele><time>2025-10-14T19:10:00.000Z</time></trkpt>
        <trkpt lat="29.2569439" lon="105.5291603"><ele>431.18</ele><time>2025-10-14T19:10:12.000Z</time></trkpt>
        <trkpt lat="29.2569415" lon="105.5290476"><ele>431.97</ele><time>2025-10-14T19:10:22.000Z</time></trkpt>
        <trkpt lat="29.2569003" lon="105.5289242"><ele>433.06</ele><time>2025-10-14T19:10:32.000Z</time></trkpt>
        <trkpt lat="29.2568755" lon="105.5288035"><ele>433.29</ele><time>2025-10-14T19:10:42.000Z</time></trkpt>
        <trkpt lat="29.2569251" lon="105.5287286"><ele>432.95</ele><time>2025-10-14T19:10:50.000Z</time></trkpt>
        <trkpt lat="29.2570146" lon="105.5286871"><ele>432.24</ele><time>2025-10-14T19:11:00.000Z</time></trkpt>
        <trkpt lat="29.2571178" lon="105.5286449"><ele>432.87</ele><time>2025-10-14T19:11:08.000Z</time></trkpt>
        <trkpt lat="29.2572222" lon="105.528665"><ele>431.89</ele><time>2025-10-14T19:11:16.000Z</time></trkpt>
        <trkpt lat="29.2573291" lon="105.528665"><ele>430.86</ele><time>2025-10-14T19:11:26.000Z</time></trkpt>
        <trkpt lat="29.2573114" lon="105.5286085"><ele>430.75</ele><time>2025-10-14T19:11:38.000Z</time></trkpt>
        <trkpt lat="29.2572335" lon="105.5285503"><ele>430.77</ele><time>2025-10-14T19:11:50.000Z</time></trkpt>
        <trkpt lat="29.2571499" lon="105.5284777"><ele>430.1</ele><time>2025-10-14T19:11:58.000Z</time></trkpt>
        <trkpt lat="29.2570558" lon="105.528425"><ele>429.75</ele><time>2025-10-14T19:12:10.000Z</time></trkpt>
        <trkpt lat="29.2569442" lon="105.5284037"><ele>431.06</ele><time>2025-10-14T19:12:20.000Z</time></trkpt>
        <trkpt lat="29.2568451" lon="105.5283799"><ele>430.22</ele><time>2025-10-14T19:12:28.000Z</time></trkpt>
        <trkpt lat="29.2567528" lon="105.528352"><ele>429.35</ele><time>2025-10-14T19:12:34.000Z</time></trkpt>
        <trkpt lat="29.2568027" lon="105.5283856"><ele>429.07</ele><time>2025-10-14T19:12:50.000Z</time></trkpt>
        <trkpt lat="29.2569107" lon="105.5284264"><ele>429.47</ele><time>2025-10-14T19:12:54.000Z</time></trkpt>
        <trkpt lat="29.2570308" lon="105.5284038"><ele>429.83</ele><time>2025-10-14T19:13:04.000Z</time></trkpt>
        <trkpt lat="29.2570566" lon="105.5282994"><ele>431.36</ele><time>2025-10-14T19:13:12.000Z</time></trkpt>
        <trkpt lat="29.2571022" lon="105.5281974"><ele>432.58</ele><time>2025-10-14T19:13:20.000Z</time></trkpt>
        <trkpt lat="29.2571692" lon="105.5281171"><ele>432.76</ele><time>2025-10-14T19:13:30.000Z</time></trkpt>
        <trkpt lat="29.2572592" lon="105.5281189"><ele>433.55</ele><time>2025-10-14T19:13:44.000Z</time></trkpt>
        <trkpt lat="29.2573593" lon="105.5281073"><ele>434.09</ele><time>2025-10-14T19:13:52.000Z</time></trkpt>
        <trkpt lat="29.2574512" lon="105.5280701"><ele>434.61</ele><time>2025-10-14T19:14:00.000Z</time></trkpt>
        <trkpt lat="29.2575425" lon="105.5280484"><ele>435.51</ele><time>2025-10-14T19:14:08.000Z</time></trkpt>
        <trkpt lat="29.2576306" lon="105.5280216"><ele>435.29</ele><time>2025-10-14T19:14:16.000Z</time></trkpt>
        <trkpt lat="29.2577224" lon="105.5279574"><ele>434.95</ele><time>2025-10-14T19:14:30.000Z</time></trkpt>
        <trkpt lat="29.2578057" lon="105.5278919"><ele>436.86</ele><time>2025-10-14T19:14:38.000Z</time></trkpt>
        <trkpt lat="29.2578969" lon="105.527857"><ele>439.55</ele><time>2025-10-14T19:14:48.000Z</time></trkpt>
        <trkpt lat="29.2579865" lon="105.527823"><ele>439.31</ele><time>2025-10-14T19:14:58.000Z</time></trkpt>
        <trkpt lat="29.258094" lon="105.527792"><ele>438.4</ele><time>2025-10-14T19:15:08.000Z</time></trkpt>
        <trkpt lat="29.2581904" lon="105.5277841"><ele>435.69</ele><time>2025-10-14T19:15:16.000Z</time></trkpt>
        <trkpt lat="29.2582831" lon="105.5277817"><ele>434.84</ele><time>2025-10-14T19:15:24.000Z</time></trkpt>
        <trkpt lat="29.2583846" lon="105.5277934"><ele>433.74</ele><time>2025-10-14T19:15:32.000Z</time></trkpt>
        <trkpt lat="29.2584794" lon="105.5278531"><ele>433.81</ele><time>2025-10-14T19:15:44.000Z</time></trkpt>
        <trkpt lat="29.2585765" lon="105.5278976"><ele>434.24</ele><time>2025-10-14T19:15:58.000Z</time></trkpt>
        <trkpt lat="29.2586558" lon="105.5279645"><ele>434.13</ele><time>2025-10-14T19:16:06.000Z</time></trkpt>
        <trkpt lat="29.2587311" lon="105.5280275"><ele>433.78</ele><time>2025-10-14T19:16:12.000Z</time></trkpt>
        <trkpt lat="29.2588209" lon="105.5280859"><ele>433.61</ele><time>2025-10-14T19:16:20.000Z</time></trkpt>
        <trkpt lat="29.2589092" lon="105.5281295"><ele>433.13</ele><time>2025-10-14T19:16:28.000Z</time></trkpt>
        <trkpt lat="29.2590053" lon="105.52816"><ele>432.22</ele><time>2025-10-14T19:16:36.000Z</time></trkpt>
        <trkpt lat="29.2590979" lon="105.5281816"><ele>431.26</ele><time>2025-10-14T19:16:44.000Z</time></trkpt>
        <trkpt lat="29.2591887" lon="105.5280957"><ele>430.2</ele><time>2025-10-14T19:17:16.000Z</time></trkpt>
        <trkpt lat="29.259146" lon="105.5280017"><ele>430.07</ele><time>2025-10-14T19:17:34.000Z</time></trkpt>
        <trkpt lat="29.2590747" lon="105.5278975"><ele>434.47</ele><time>2025-10-14T19:17:46.000Z</time></trkpt>
        <trkpt lat="29.2590365" lon="105.5277658"><ele>438.66</ele><time>2025-10-14T19:17:56.000Z</time></trkpt>
        <trkpt lat="29.2590536" lon="105.5276568"><ele>441.17</ele><time>2025-10-14T19:18:06.000Z</time></trkpt>
        <trkpt lat="29.2590668" lon="105.5275351"><ele>441.48</ele><time>2025-10-14T19:18:14.000Z</time></trkpt>
        <trkpt lat="29.2590824" lon="105.5274217"><ele>440.67</ele><time>2025-10-14T19:18:22.000Z</time></trkpt>
        <trkpt lat="29.2591178" lon="105.5273221"><ele>440.38</ele><time>2025-10-14T19:18:34.000Z</time></trkpt>
        <trkpt lat="29.2591598" lon="105.52722"><ele>438.97</ele><time>2025-10-14T19:18:54.000Z</time></trkpt>
        <trkpt lat="29.2591889" lon="105.5271164"><ele>439.5</ele><time>2025-10-14T19:19:10.000Z</time></trkpt>
        <trkpt lat="29.259196" lon="105.527008"><ele>441.52</ele><time>2025-10-14T19:19:18.000Z</time></trkpt>
        <trkpt lat="29.2592025" lon="105.5268967"><ele>443.62</ele><time>2025-10-14T19:19:26.000Z</time></trkpt>
        <trkpt lat="29.2592052" lon="105.5267883"><ele>445.33</ele><time>2025-10-14T19:19:34.000Z</time></trkpt>
        <trkpt lat="29.2592021" lon="105.5266774"><ele>447.6</ele><time>2025-10-14T19:19:44.000Z</time></trkpt>
        <trkpt lat="29.2592263" lon="105.5265519"><ele>450.09</ele><time>2025-10-14T19:19:58.000Z</time></trkpt>
        <trkpt lat="29.2592624" lon="105.52644"><ele>448.63</ele><time>2025-10-14T19:20:04.000Z</time></trkpt>
        <trkpt lat="29.2593178" lon="105.5263439"><ele>444.15</ele><time>2025-10-14T19:20:16.000Z</time></trkpt>
        <trkpt lat="29.2593767" lon="105.5262407"><ele>439.82</ele><time>2025-10-14T19:20:26.000Z</time></trkpt>
        <trkpt lat="29.2594174" lon="105.5261415"><ele>438.22</ele><time>2025-10-14T19:20:34.000Z</time></trkpt>
        <trkpt lat="29.2594305" lon="105.5260273"><ele>437.22</ele><time>2025-10-14T19:20:42.000Z</time></trkpt>
        <trkpt lat="29.2594313" lon="105.5259199"><ele>436.4</ele><time>2025-10-14T19:20:52.000Z</time></trkpt>
        <trkpt lat="29.2594256" lon="105.5257968"><ele>436.1</ele><time>2025-10-14T19:21:16.000Z</time></trkpt>
        <trkpt lat="29.2594254" lon="105.5256805"><ele>434.55</ele><time>2025-10-14T19:21:22.000Z</time></trkpt>
        <trkpt lat="29.2594885" lon="105.5256113"><ele>433.8</ele><time>2025-10-14T19:21:32.000Z</time></trkpt>
        <trkpt lat="29.2595875" lon="105.5255757"><ele>434.27</ele><time>2025-10-14T19:21:44.000Z</time></trkpt>
        <trkpt lat="29.2596965" lon="105.5255599"><ele>435.62</ele><time>2025-10-14T19:21:56.000Z</time></trkpt>
        <trkpt lat="29.2598128" lon="105.5255581"><ele>438.45</ele><time>2025-10-14T19:22:06.000Z</time></trkpt>
        <trkpt lat="29.2599244" lon="105.5255412"><ele>440.66</ele><time>2025-10-14T19:22:14.000Z</time></trkpt>
        <trkpt lat="29.259976" lon="105.5254613"><ele>441.97</ele><time>2025-10-14T19:22:28.000Z</time></trkpt>
        <trkpt lat="29.260044" lon="105.5253819"><ele>442.2</ele><time>2025-10-14T19:22:36.000Z</time></trkpt>
        <trkpt lat="29.2601196" lon="105.5252885"><ele>441.12</ele><time>2025-10-14T19:22:44.000Z</time></trkpt>
        <trkpt lat="29.2601736" lon="105.5251953"><ele>438.62</ele><time>2025-10-14T19:22:52.000Z</time></trkpt>
        <trkpt lat="29.2602334" lon="105.5251151"><ele>437.79</ele><time>2025-10-14T19:23:04.000Z</time></trkpt>
        <trkpt lat="29.2602965" lon="105.5250394"><ele>436.76</ele><time>2025-10-14T19:23:12.000Z</time></trkpt>
        <trkpt lat="29.2603736" lon="105.5249813"><ele>435.45</ele><time>2025-10-14T19:23:22.000Z</time></trkpt>
        <trkpt lat="29.260427" lon="105.5248992"><ele>435.25</ele><time>2025-10-14T19:23:32.000Z</time></trkpt>
        <trkpt lat="29.2605048" lon="105.524826"><ele>435.49</ele><time>2025-10-14T19:23:42.000Z</time></trkpt>
        <trkpt lat="29.2605347" lon="105.5247254"><ele>437.21</ele><time>2025-10-14T19:23:52.000Z</time></trkpt>
        <trkpt lat="29.2605839" lon="105.5246397"><ele>437.51</ele><time>2025-10-14T19:24:04.000Z</time></trkpt>
        <trkpt lat="29.2606285" lon="105.5245471"><ele>435.4</ele><time>2025-10-14T19:24:14.000Z</time></trkpt>
        <trkpt lat="29.2606677" lon="105.5244445"><ele>434.93</ele><time>2025-10-14T19:24:24.000Z</time></trkpt>
        <trkpt lat="29.2607266" lon="105.5243485"><ele>434.53</ele><time>2025-10-14T19:24:34.000Z</time></trkpt>
        <trkpt lat="29.2607681" lon="105.5242507"><ele>434.04</ele><time>2025-10-14T19:24:46.000Z</time></trkpt>
        <trkpt lat="29.2608249" lon="105.5241573"><ele>433.16</ele><time>2025-10-14T19:24:58.000Z</time></trkpt>
        <trkpt lat="29.2608866" lon="105.5240743"><ele>432.58</ele><time>2025-10-14T19:25:10.000Z</time></trkpt>
        <trkpt lat="29.2609657" lon="105.5240063"><ele>433.1</ele><time>2025-10-14T19:25:20.000Z</time></trkpt>
        <trkpt lat="29.2610282" lon="105.5239292"><ele>434.52</ele><time>2025-10-14T19:25:36.000Z</time></trkpt>
        <trkpt lat="29.2610569" lon="105.5238227"><ele>438</ele><time>2025-10-14T19:25:48.000Z</time></trkpt>
        <trkpt lat="29.2610837" lon="105.5237203"><ele>440.36</ele><time>2025-10-14T19:25:56.000Z</time></trkpt>
        <trkpt lat="29.2611141" lon="105.5236121"><ele>441.67</ele><time>2025-10-14T19:26:08.000Z</time></trkpt>
        <trkpt lat="29.261186" lon="105.52351"><ele>441.64</ele><time>2025-10-14T19:26:36.000Z</time></trkpt>
        <trkpt lat="29.2612558" lon="105.5234145"><ele>442.4</ele><time>2025-10-14T19:26:50.000Z</time></trkpt>
        <trkpt lat="29.2612902" lon="105.5233101"><ele>443.99</ele><time>2025-10-14T19:27:02.000Z</time></trkpt>
        <trkpt lat="29.261302" lon="105.5231984"><ele>443.78</ele><time>2025-10-14T19:27:14.000Z</time></trkpt>
        <trkpt lat="29.2613195" lon="105.5230905"><ele>444.13</ele><time>2025-10-14T19:27:24.000Z</time></trkpt>
        <trkpt lat="29.2613548" lon="105.5229896"><ele>445.75</ele><time>2025-10-14T19:27:36.000Z</time></trkpt>
        <trkpt lat="29.2614037" lon="105.5228901"><ele>447.41</ele><time>2025-10-14T19:27:46.000Z</time></trkpt>
        <trkpt lat="29.2614594" lon="105.5228033"><ele>449.73</ele><time>2025-10-14T19:28:00.000Z</time></trkpt>
        <trkpt lat="29.2614765" lon="105.5226996"><ele>451.87</ele><time>2025-10-14T19:28:28.000Z</time></trkpt>
        <trkpt lat="29.2615061" lon="105.5225914"><ele>455.02</ele><time>2025-10-14T19:28:44.000Z</time></trkpt>
        <trkpt lat="29.261478" lon="105.5224958"><ele>457.25</ele><time>2025-10-14T19:28:54.000Z</time></trkpt>
        <trkpt lat="29.2614127" lon="105.5224153"><ele>458.22</ele><time>2025-10-14T19:29:04.000Z</time></trkpt>
        <trkpt lat="29.2613346" lon="105.5223449"><ele>459.37</ele><time>2025-10-14T19:29:14.000Z</time></trkpt>
        <trkpt lat="29.2613671" lon="105.5222835"><ele>459.99</ele><time>2025-10-14T19:29:28.000Z</time></trkpt>
        <trkpt lat="29.2614639" lon="105.5222818"><ele>462.01</ele><time>2025-10-14T19:29:34.000Z</time></trkpt>
        <trkpt lat="29.2615671" lon="105.522272"><ele>465.06</ele><time>2025-10-14T19:29:48.000Z</time></trkpt>
        <trkpt lat="29.2616616" lon="105.5222342"><ele>468.95</ele><time>2025-10-14T19:30:06.000Z</time></trkpt>
        <trkpt lat="29.2617494" lon="105.5221719"><ele>472.54</ele><time>2025-10-14T19:30:32.000Z</time></trkpt>
        <trkpt lat="29.2618221" lon="105.522094"><ele>474.03</ele><time>2025-10-14T19:30:48.000Z</time></trkpt>
        <trkpt lat="29.2618815" lon="105.5219957"><ele>474.83</ele><time>2025-10-14T19:31:02.000Z</time></trkpt>
        <trkpt lat="29.2619277" lon="105.5218943"><ele>475.08</ele><time>2025-10-14T19:31:18.000Z</time></trkpt>
        <trkpt lat="29.2619678" lon="105.5217963"><ele>475.35</ele><time>2025-10-14T19:31:30.000Z</time></trkpt>
        <trkpt lat="29.2620107" lon="105.5217007"><ele>475.8</ele><time>2025-10-14T19:31:44.000Z</time></trkpt>
        <trkpt lat="29.2620343" lon="105.5215903"><ele>476.83</ele><time>2025-10-14T19:31:56.000Z</time></trkpt>
        <trkpt lat="29.262065" lon="105.5214771"><ele>478.37</ele><time>2025-10-14T19:32:14.000Z</time></trkpt>
        <trkpt lat="29.2621272" lon="105.5213963"><ele>480.02</ele><time>2025-10-14T19:32:24.000Z</time></trkpt>
        <trkpt lat="29.2622199" lon="105.5213655"><ele>480.96</ele><time>2025-10-14T19:32:38.000Z</time></trkpt>
        <trkpt lat="29.2622971" lon="105.5213064"><ele>480.72</ele><time>2025-10-14T19:32:54.000Z</time></trkpt>
        <trkpt lat="29.2623561" lon="105.5212223"><ele>480.71</ele><time>2025-10-14T19:33:06.000Z</time></trkpt>
        <trkpt lat="29.2624193" lon="105.5211399"><ele>480.36</ele><time>2025-10-14T19:33:16.000Z</time></trkpt>
        <trkpt lat="29.2624885" lon="105.5210682"><ele>479.6</ele><time>2025-10-14T19:33:22.000Z</time></trkpt>
        <trkpt lat="29.262515" lon="105.521036"><ele>479.09</ele><time>2025-10-14T19:33:26.000Z</time></trkpt>
        <trkpt lat="29.2625457" lon="105.5209515"><ele>478.88</ele><time>2025-10-14T19:33:38.000Z</time></trkpt>
        <trkpt lat="29.2625839" lon="105.5208456"><ele>479.32</ele><time>2025-10-14T19:33:50.000Z</time></trkpt>
        <trkpt lat="29.2626195" lon="105.5207423"><ele>479.83</ele><time>2025-10-14T19:34:04.000Z</time></trkpt>
        <trkpt lat="29.262658" lon="105.5206308"><ele>482.35</ele><time>2025-10-14T19:34:18.000Z</time></trkpt>
        <trkpt lat="29.2626965" lon="105.5205246"><ele>484.74</ele><time>2025-10-14T19:34:30.000Z</time></trkpt>
        <trkpt lat="29.2627324" lon="105.5204226"><ele>487</ele><time>2025-10-14T19:34:42.000Z</time></trkpt>
        <trkpt lat="29.2627812" lon="105.5203324"><ele>489.37</ele><time>2025-10-14T19:34:56.000Z</time></trkpt>
        <trkpt lat="29.2627671" lon="105.5202376"><ele>492.13</ele><time>2025-10-14T19:35:12.000Z</time></trkpt>
        <trkpt lat="29.262787" lon="105.5201404"><ele>493.45</ele><time>2025-10-14T19:35:26.000Z</time></trkpt>
        <trkpt lat="29.2628137" lon="105.520041"><ele>494.08</ele><time>2025-10-14T19:35:44.000Z</time></trkpt>
        <trkpt lat="29.2628903" lon="105.519957"><ele>493.61</ele><time>2025-10-14T19:36:08.000Z</time></trkpt>
        <trkpt lat="29.262967" lon="105.5198764"><ele>498.98</ele><time>2025-10-14T19:36:22.000Z</time></trkpt>
        <trkpt lat="29.2630383" lon="105.5198001"><ele>504.45</ele><time>2025-10-14T19:36:32.000Z</time></trkpt>
        <trkpt lat="29.2631011" lon="105.5197146"><ele>509.12</ele><time>2025-10-14T19:36:46.000Z</time></trkpt>
        <trkpt lat="29.2631802" lon="105.5196541"><ele>513.76</ele><time>2025-10-14T19:37:02.000Z</time></trkpt>
        <trkpt lat="29.2632579" lon="105.5195791"><ele>516.61</ele><time>2025-10-14T19:37:16.000Z</time></trkpt>
        <trkpt lat="29.2632905" lon="105.5194763"><ele>518.11</ele><time>2025-10-14T19:37:30.000Z</time></trkpt>
        <trkpt lat="29.2632261" lon="105.5194223"><ele>519.79</ele><time>2025-10-14T19:37:46.000Z</time></trkpt>
        <trkpt lat="29.2631261" lon="105.5194228"><ele>521.13</ele><time>2025-10-14T19:38:10.000Z</time></trkpt>
        <trkpt lat="29.2629857" lon="105.5193675"><ele>525.03</ele><time>2025-10-14T19:38:54.000Z</time></trkpt>
        <trkpt lat="29.2629813" lon="105.5192828"><ele>531.38</ele><time>2025-10-14T19:39:14.000Z</time></trkpt>
        <trkpt lat="29.2630342" lon="105.5191883"><ele>534.53</ele><time>2025-10-14T19:39:46.000Z</time></trkpt>
        <trkpt lat="29.2630581" lon="105.5190837"><ele>536.11</ele><time>2025-10-14T19:40:08.000Z</time></trkpt>
        <trkpt lat="29.2630984" lon="105.5189845"><ele>538.94</ele><time>2025-10-14T19:40:18.000Z</time></trkpt>
        <trkpt lat="29.2631658" lon="105.518905"><ele>540.39</ele><time>2025-10-14T19:40:30.000Z</time></trkpt>
        <trkpt lat="29.2632489" lon="105.5188419"><ele>541.73</ele><time>2025-10-14T19:40:42.000Z</time></trkpt>
        <trkpt lat="29.2633217" lon="105.5187577"><ele>542.49</ele><time>2025-10-14T19:41:02.000Z</time></trkpt>
        <trkpt lat="29.2633948" lon="105.5186882"><ele>545.07</ele><time>2025-10-14T19:41:14.000Z</time></trkpt>
        <trkpt lat="29.2634549" lon="105.5186083"><ele>547.28</ele><time>2025-10-14T19:41:34.000Z</time></trkpt>
        <trkpt lat="29.2635226" lon="105.5185378"><ele>548.41</ele><time>2025-10-14T19:41:44.000Z</time></trkpt>
        <trkpt lat="29.2635497" lon="105.5184396"><ele>548.53</ele><time>2025-10-14T19:41:54.000Z</time></trkpt>
        <trkpt lat="29.2635556" lon="105.518331"><ele>546.41</ele><time>2025-10-14T19:42:06.000Z</time></trkpt>
        <trkpt lat="29.2635772" lon="105.5182161"><ele>544.51</ele><time>2025-10-14T19:42:18.000Z</time></trkpt>
        <trkpt lat="29.2636544" lon="105.5181591"><ele>542.18</ele><time>2025-10-14T19:42:28.000Z</time></trkpt>
        <trkpt lat="29.2637548" lon="105.518148"><ele>542.28</ele><time>2025-10-14T19:42:40.000Z</time></trkpt>
        <trkpt lat="29.2638308" lon="105.5182212"><ele>543.79</ele><time>2025-10-14T19:42:48.000Z</time></trkpt>
        <trkpt lat="29.2638613" lon="105.5183426"><ele>544.61</ele><time>2025-10-14T19:42:58.000Z</time></trkpt>
        <trkpt lat="29.2639163" lon="105.5184523"><ele>545.17</ele><time>2025-10-14T19:43:10.000Z</time></trkpt>
        <trkpt lat="29.263989" lon="105.5185291"><ele>545.01</ele><time>2025-10-14T19:43:18.000Z</time></trkpt>
        <trkpt lat="29.2640718" lon="105.5185849"><ele>544.49</ele><time>2025-10-14T19:43:28.000Z</time></trkpt>
        <trkpt lat="29.2641661" lon="105.5186372"><ele>545.61</ele><time>2025-10-14T19:43:40.000Z</time></trkpt>
        <trkpt lat="29.2642509" lon="105.5186094"><ele>546.73</ele><time>2025-10-14T19:43:52.000Z</time></trkpt>
        <trkpt lat="29.2643249" lon="105.5185345"><ele>548.13</ele><time>2025-10-14T19:44:02.000Z</time></trkpt>
        <trkpt lat="29.2643972" lon="105.518436"><ele>549.45</ele><time>2025-10-14T19:44:10.000Z</time></trkpt>
        <trkpt lat="29.2644745" lon="105.5183641"><ele>550.59</ele><time>2025-10-14T19:44:20.000Z</time></trkpt>
        <trkpt lat="29.2645741" lon="105.5183736"><ele>549.91</ele><time>2025-10-14T19:44:32.000Z</time></trkpt>
        <trkpt lat="29.2646691" lon="105.5184097"><ele>549.52</ele><time>2025-10-14T19:44:40.000Z</time></trkpt>
        <trkpt lat="29.264775" lon="105.5184177"><ele>549.21</ele><time>2025-10-14T19:44:50.000Z</time></trkpt>
        <trkpt lat="29.2648733" lon="105.5184455"><ele>548.04</ele><time>2025-10-14T19:45:04.000Z</time></trkpt>
        <trkpt lat="29.2649541" lon="105.5185053"><ele>548.97</ele><time>2025-10-14T19:45:14.000Z</time></trkpt>
        <trkpt lat="29.2650473" lon="105.5185153"><ele>550.27</ele><time>2025-10-14T19:45:28.000Z</time></trkpt>
        <trkpt lat="29.2651322" lon="105.5184797"><ele>551.88</ele><time>2025-10-14T19:45:42.000Z</time></trkpt>
        <trkpt lat="29.2651801" lon="105.5183812"><ele>553.35</ele><time>2025-10-14T19:46:06.000Z</time></trkpt>
        <trkpt lat="29.2651547" lon="105.5182769"><ele>557.46</ele><time>2025-10-14T19:46:26.000Z</time></trkpt>
        <trkpt lat="29.2651173" lon="105.5181617"><ele>562.81</ele><time>2025-10-14T19:46:40.000Z</time></trkpt>
        <trkpt lat="29.2651082" lon="105.5180432"><ele>566.07</ele><time>2025-10-14T19:46:56.000Z</time></trkpt>
        <trkpt lat="29.2650566" lon="105.5179382"><ele>568.06</ele><time>2025-10-14T19:47:10.000Z</time></trkpt>
        <trkpt lat="29.2650059" lon="105.5178383"><ele>570.14</ele><time>2025-10-14T19:47:24.000Z</time></trkpt>
        <trkpt lat="29.2649568" lon="105.5177326"><ele>571.37</ele><time>2025-10-14T19:47:36.000Z</time></trkpt>
        <trkpt lat="29.2649133" lon="105.5176284"><ele>571.47</ele><time>2025-10-14T19:47:48.000Z</time></trkpt>
        <trkpt lat="29.2648474" lon="105.5175561"><ele>572.17</ele><time>2025-10-14T19:48:00.000Z</time></trkpt>
        <trkpt lat="29.2648234" lon="105.5174454"><ele>572.7</ele><time>2025-10-14T19:48:14.000Z</time></trkpt>
        <trkpt lat="29.2647796" lon="105.5173428"><ele>573</ele><time>2025-10-14T19:48:24.000Z</time></trkpt>
        <trkpt lat="29.2647244" lon="105.5172455"><ele>574.33</ele><time>2025-10-14T19:48:38.000Z</time></trkpt>
        <trkpt lat="29.2647067" lon="105.5171428"><ele>576.9</ele><time>2025-10-14T19:48:48.000Z</time></trkpt>
        <trkpt lat="29.2646895" lon="105.5170367"><ele>579.61</ele><time>2025-10-14T19:48:58.000Z</time></trkpt>
        <trkpt lat="29.2646371" lon="105.5169547"><ele>580.21</ele><time>2025-10-14T19:49:24.000Z</time></trkpt>
        <trkpt lat="29.2645922" lon="105.5168641"><ele>582.1</ele><time>2025-10-14T19:49:36.000Z</time></trkpt>
        <trkpt lat="29.2645502" lon="105.5167592"><ele>583.52</ele><time>2025-10-14T19:49:46.000Z</time></trkpt>
        <trkpt lat="29.2645059" lon="105.5166628"><ele>584.89</ele><time>2025-10-14T19:49:56.000Z</time></trkpt>
        <trkpt lat="29.264447" lon="105.5165814"><ele>586.14</ele><time>2025-10-14T19:50:10.000Z</time></trkpt>
        <trkpt lat="29.2644067" lon="105.5164829"><ele>587.89</ele><time>2025-10-14T19:50:24.000Z</time></trkpt>
        <trkpt lat="29.264369" lon="105.5163797"><ele>589.1</ele><time>2025-10-14T19:50:36.000Z</time></trkpt>
        <trkpt lat="29.2643168" lon="105.5162829"><ele>590.13</ele><time>2025-10-14T19:50:50.000Z</time></trkpt>
        <trkpt lat="29.2642775" lon="105.5161788"><ele>589.34</ele><time>2025-10-14T19:51:00.000Z</time></trkpt>
        <trkpt lat="29.2642511" lon="105.5160695"><ele>589.32</ele><time>2025-10-14T19:51:10.000Z</time></trkpt>
        <trkpt lat="29.2642265" lon="105.5160176"><ele>590.39</ele><time>2025-10-14T19:51:20.000Z</time></trkpt>
        <trkpt lat="29.26432" lon="105.5159933"><ele>591.68</ele><time>2025-10-14T19:52:22.000Z</time></trkpt>
        <trkpt lat="29.264415" lon="105.5159667"><ele>593.02</ele><time>2025-10-14T19:53:58.000Z</time></trkpt>
        <trkpt lat="29.2645083" lon="105.5159617"><ele>591.94</ele><time>2025-10-14T19:54:14.000Z</time></trkpt>
        <trkpt lat="29.2646101" lon="105.5159538"><ele>590.85</ele><time>2025-10-14T19:54:28.000Z</time></trkpt>
        <trkpt lat="29.2647031" lon="105.5159558"><ele>589.54</ele><time>2025-10-14T19:54:44.000Z</time></trkpt>
        <trkpt lat="29.2647784" lon="105.5158981"><ele>587.03</ele><time>2025-10-14T19:55:00.000Z</time></trkpt>
        <trkpt lat="29.2648386" lon="105.5158175"><ele>586.58</ele><time>2025-10-14T19:55:10.000Z</time></trkpt>
        <trkpt lat="29.2649057" lon="105.5157424"><ele>587.19</ele><time>2025-10-14T19:55:24.000Z</time></trkpt>
        <trkpt lat="29.2649891" lon="105.5157199"><ele>584.57</ele><time>2025-10-14T19:55:34.000Z</time></trkpt>
        <trkpt lat="29.2650827" lon="105.5157629"><ele>582.86</ele><time>2025-10-14T19:55:44.000Z</time></trkpt>
        <trkpt lat="29.2651844" lon="105.5158188"><ele>580.9</ele><time>2025-10-14T19:55:56.000Z</time></trkpt>
        <trkpt lat="29.2652793" lon="105.5158446"><ele>580.51</ele><time>2025-10-14T19:56:04.000Z</time></trkpt>
        <trkpt lat="29.2653732" lon="105.5158624"><ele>580.72</ele><time>2025-10-14T19:56:16.000Z</time></trkpt>
        <trkpt lat="29.2654755" lon="105.5159036"><ele>580.8</ele><time>2025-10-14T19:56:26.000Z</time></trkpt>
        <trkpt lat="29.2655696" lon="105.5159336"><ele>579.64</ele><time>2025-10-14T19:56:36.000Z</time></trkpt>
        <trkpt lat="29.2656652" lon="105.5159435"><ele>579.32</ele><time>2025-10-14T19:56:46.000Z</time></trkpt>
        <trkpt lat="29.265759" lon="105.5159335"><ele>579.53</ele><time>2025-10-14T19:56:56.000Z</time></trkpt>
        <trkpt lat="29.2658447" lon="105.5159575"><ele>579.3</ele><time>2025-10-14T19:57:08.000Z</time></trkpt>
        <trkpt lat="29.2659539" lon="105.5159768"><ele>579.47</ele><time>2025-10-14T19:57:20.000Z</time></trkpt>
        <trkpt lat="29.2660608" lon="105.5159734"><ele>580.6</ele><time>2025-10-14T19:57:30.000Z</time></trkpt>
        <trkpt lat="29.2661584" lon="105.5159526"><ele>580.77</ele><time>2025-10-14T19:57:42.000Z</time></trkpt>
        <trkpt lat="29.2662484" lon="105.5159216"><ele>580.35</ele><time>2025-10-14T19:57:50.000Z</time></trkpt>
        <trkpt lat="29.266341" lon="105.515911"><ele>580.85</ele><time>2025-10-14T19:58:00.000Z</time></trkpt>
        <trkpt lat="29.26643" lon="105.5158892"><ele>581.9</ele><time>2025-10-14T19:58:08.000Z</time></trkpt>
        <trkpt lat="29.2665204" lon="105.5158954"><ele>582.76</ele><time>2025-10-14T19:58:18.000Z</time></trkpt>
        <trkpt lat="29.2666217" lon="105.515916"><ele>583.25</ele><time>2025-10-14T19:58:34.000Z</time></trkpt>
        <trkpt lat="29.2667169" lon="105.5159218"><ele>583.7</ele><time>2025-10-14T19:58:44.000Z</time></trkpt>
        <trkpt lat="29.2667593" lon="105.5158255"><ele>584.35</ele><time>2025-10-14T19:58:58.000Z</time></trkpt>
        <trkpt lat="29.2667699" lon="105.5157007"><ele>583.42</ele><time>2025-10-14T19:59:14.000Z</time></trkpt>
        <trkpt lat="29.2667605" lon="105.5155674"><ele>581.31</ele><time>2025-10-14T19:59:26.000Z</time></trkpt>
        <trkpt lat="29.266717" lon="105.5154505"><ele>579.71</ele><time>2025-10-14T19:59:38.000Z</time></trkpt>
        <trkpt lat="29.2666728" lon="105.5153437"><ele>578.46</ele><time>2025-10-14T19:59:48.000Z</time></trkpt>
        <trkpt lat="29.2666265" lon="105.5152399"><ele>577.53</ele><time>2025-10-14T19:59:56.000Z</time></trkpt>
        <trkpt lat="29.2665802" lon="105.5151346"><ele>577.3</ele><time>2025-10-14T20:00:06.000Z</time></trkpt>
        <trkpt lat="29.2665449" lon="105.5150159"><ele>577.17</ele><time>2025-10-14T20:00:18.000Z</time></trkpt>
        <trkpt lat="29.266558" lon="105.5149022"><ele>577.7</ele><time>2025-10-14T20:00:30.000Z</time></trkpt>
        <trkpt lat="29.266576" lon="105.5147899"><ele>578.9</ele><time>2025-10-14T20:00:38.000Z</time></trkpt>
        <trkpt lat="29.2666005" lon="105.5146706"><ele>580.19</ele><time>2025-10-14T20:00:48.000Z</time></trkpt>
        <trkpt lat="29.2666131" lon="105.5146339"><ele>581.27</ele><time>2025-10-14T20:00:50.000Z</time></trkpt>
        <trkpt lat="29.2666917" lon="105.5146083"><ele>581.67</ele><time>2025-10-14T20:02:24.000Z</time></trkpt>
        <trkpt lat="29.26679" lon="105.5146317"><ele>579.4</ele><time>2025-10-14T20:02:48.000Z</time></trkpt>
        <trkpt lat="29.2668376" lon="105.5147213"><ele>579.88</ele><time>2025-10-14T20:03:04.000Z</time></trkpt>
        <trkpt lat="29.2668787" lon="105.5148265"><ele>581.13</ele><time>2025-10-14T20:03:18.000Z</time></trkpt>
        <trkpt lat="29.2669326" lon="105.5149131"><ele>583.18</ele><time>2025-10-14T20:03:40.000Z</time></trkpt>
        <trkpt lat="29.2669858" lon="105.5150054"><ele>586.29</ele><time>2025-10-14T20:03:56.000Z</time></trkpt>
        <trkpt lat="29.2670426" lon="105.515092"><ele>587.76</ele><time>2025-10-14T20:04:04.000Z</time></trkpt>
        <trkpt lat="29.267102" lon="105.5151798"><ele>588.59</ele><time>2025-10-14T20:04:14.000Z</time></trkpt>
        <trkpt lat="29.2671598" lon="105.5152706"><ele>588.85</ele><time>2025-10-14T20:04:24.000Z</time></trkpt>
        <trkpt lat="29.2672356" lon="105.5153524"><ele>588.31</ele><time>2025-10-14T20:04:34.000Z</time></trkpt>
        <trkpt lat="29.2672804" lon="105.515447"><ele>587.92</ele><time>2025-10-14T20:04:44.000Z</time></trkpt>
        <trkpt lat="29.2673341" lon="105.5155392"><ele>588.43</ele><time>2025-10-14T20:04:56.000Z</time></trkpt>
        <trkpt lat="29.2673585" lon="105.5156413"><ele>587.04</ele><time>2025-10-14T20:05:06.000Z</time></trkpt>
        <trkpt lat="29.267396" lon="105.5157356"><ele>587.15</ele><time>2025-10-14T20:05:18.000Z</time></trkpt>
        <trkpt lat="29.2674626" lon="105.5158202"><ele>587.34</ele><time>2025-10-14T20:05:50.000Z</time></trkpt>
        <trkpt lat="29.2675149" lon="105.5159201"><ele>587.33</ele><time>2025-10-14T20:06:02.000Z</time></trkpt>
        <trkpt lat="29.2675856" lon="105.5159912"><ele>587.14</ele><time>2025-10-14T20:06:26.000Z</time></trkpt>
        <trkpt lat="29.2676541" lon="105.5160624"><ele>585.45</ele><time>2025-10-14T20:06:38.000Z</time></trkpt>
        <trkpt lat="29.2676567" lon="105.5161617"><ele>584.65</ele><time>2025-10-14T20:25:17.000Z</time></trkpt>
        <trkpt lat="29.2676767" lon="105.5162683"><ele>584.33</ele><time>2025-10-14T20:25:33.000Z</time></trkpt>
        <trkpt lat="29.2676938" lon="105.5163778"><ele>583.71</ele><time>2025-10-14T20:25:47.000Z</time></trkpt>
        <trkpt lat="29.2677504" lon="105.5164608"><ele>583.45</ele><time>2025-10-14T20:25:59.000Z</time></trkpt>
        <trkpt lat="29.2678243" lon="105.5165355"><ele>582.4</ele><time>2025-10-14T20:26:13.000Z</time></trkpt>
        <trkpt lat="29.2678645" lon="105.5166267"><ele>581.71</ele><time>2025-10-14T20:26:27.000Z</time></trkpt>
        <trkpt lat="29.2678954" lon="105.5167289"><ele>582.26</ele><time>2025-10-14T20:26:39.000Z</time></trkpt>
        <trkpt lat="29.2679288" lon="105.5168285"><ele>583.27</ele><time>2025-10-14T20:26:49.000Z</time></trkpt>
        <trkpt lat="29.2679826" lon="105.5169226"><ele>583.58</ele><time>2025-10-14T20:26:59.000Z</time></trkpt>
        <trkpt lat="29.2680356" lon="105.5170234"><ele>582.77</ele><time>2025-10-14T20:27:09.000Z</time></trkpt>
        <trkpt lat="29.2680986" lon="105.5171066"><ele>581.19</ele><time>2025-10-14T20:27:23.000Z</time></trkpt>
        <trkpt lat="29.2681785" lon="105.5171556"><ele>581.33</ele><time>2025-10-14T20:28:21.000Z</time></trkpt>
        <trkpt lat="29.2681775" lon="105.5172355"><ele>581.19</ele><time>2025-10-14T20:29:03.000Z</time></trkpt>
        <trkpt lat="29.2681743" lon="105.517334"><ele>580.16</ele><time>2025-10-14T20:29:17.000Z</time></trkpt>
        <trkpt lat="29.2681929" lon="105.5174376"><ele>579.57</ele><time>2025-10-14T20:29:39.000Z</time></trkpt>
        <trkpt lat="29.268254" lon="105.5175292"><ele>579.59</ele><time>2025-10-14T20:29:57.000Z</time></trkpt>
        <trkpt lat="29.2682943" lon="105.5176344"><ele>580.19</ele><time>2025-10-14T20:30:07.000Z</time></trkpt>
        <trkpt lat="29.2683371" lon="105.5177333"><ele>583.55</ele><time>2025-10-14T20:30:21.000Z</time></trkpt>
        <trkpt lat="29.2684096" lon="105.5178005"><ele>584.35</ele><time>2025-10-14T20:30:33.000Z</time></trkpt>
        <trkpt lat="29.2684701" lon="105.5178786"><ele>582.52</ele><time>2025-10-14T20:30:45.000Z</time></trkpt>
        <trkpt lat="29.268527" lon="105.5179675"><ele>580.4</ele><time>2025-10-14T20:30:53.000Z</time></trkpt>
        <trkpt lat="29.2686049" lon="105.5180393"><ele>579.24</ele><time>2025-10-14T20:31:03.000Z</time></trkpt>
        <trkpt lat="29.2686768" lon="105.5181082"><ele>579.05</ele><time>2025-10-14T20:31:13.000Z</time></trkpt>
        <trkpt lat="29.2687567" lon="105.5181617"><ele>579.46</ele><time>2025-10-14T20:34:11.000Z</time></trkpt>
        <trkpt lat="29.2688267" lon="105.5182367"><ele>579.13</ele><time>2025-10-14T20:34:19.000Z</time></trkpt>
        <trkpt lat="29.2689206" lon="105.5182947"><ele>579.55</ele><time>2025-10-14T20:34:29.000Z</time></trkpt>
        <trkpt lat="29.269015" lon="105.5183292"><ele>580.6</ele><time>2025-10-14T20:34:41.000Z</time></trkpt>
        <trkpt lat="29.2691033" lon="105.5183688"><ele>581.76</ele><time>2025-10-14T20:34:51.000Z</time></trkpt>
        <trkpt lat="29.2691517" lon="105.5184633"><ele>581.05</ele><time>2025-10-14T20:38:53.000Z</time></trkpt>
        <trkpt lat="29.2691683" lon="105.518575"><ele>578.66</ele><time>2025-10-14T20:39:07.000Z</time></trkpt>
        <trkpt lat="29.2691892" lon="105.5186881"><ele>577.56</ele><time>2025-10-14T20:39:21.000Z</time></trkpt>
        <trkpt lat="29.2692636" lon="105.5187667"><ele>577.53</ele><time>2025-10-14T20:39:35.000Z</time></trkpt>
        <trkpt lat="29.2693497" lon="105.5188219"><ele>578.59</ele><time>2025-10-14T20:39:47.000Z</time></trkpt>
        <trkpt lat="29.2694234" lon="105.5188899"><ele>579.54</ele><time>2025-10-14T20:39:59.000Z</time></trkpt>
        <trkpt lat="29.2694617" lon="105.5189807"><ele>579.27</ele><time>2025-10-14T20:40:09.000Z</time></trkpt>
        <trkpt lat="29.2695015" lon="105.5190743"><ele>580.66</ele><time>2025-10-14T20:40:23.000Z</time></trkpt>
        <trkpt lat="29.269546" lon="105.5191716"><ele>583.9</ele><time>2025-10-14T20:40:33.000Z</time></trkpt>
        <trkpt lat="29.2696168" lon="105.5192684"><ele>586.91</ele><time>2025-10-14T20:40:43.000Z</time></trkpt>
        <trkpt lat="29.2697074" lon="105.5193268"><ele>589.53</ele><time>2025-10-14T20:40:55.000Z</time></trkpt>
        <trkpt lat="29.2697989" lon="105.5193622"><ele>591.8</ele><time>2025-10-14T20:41:05.000Z</time></trkpt>
        <trkpt lat="29.2698927" lon="105.5193411"><ele>592.27</ele><time>2025-10-14T20:41:17.000Z</time></trkpt>
        <trkpt lat="29.2699537" lon="105.5194155"><ele>592.71</ele><time>2025-10-14T20:41:45.000Z</time></trkpt>
        <trkpt lat="29.2700109" lon="105.5195042"><ele>590.94</ele><time>2025-10-14T20:41:57.000Z</time></trkpt>
        <trkpt lat="29.2700706" lon="105.5195876"><ele>590.24</ele><time>2025-10-14T20:42:11.000Z</time></trkpt>
        <trkpt lat="29.2701247" lon="105.5196729"><ele>588.93</ele><time>2025-10-14T20:42:19.000Z</time></trkpt>
        <trkpt lat="29.2701496" lon="105.5197744"><ele>588.01</ele><time>2025-10-14T20:42:29.000Z</time></trkpt>
        <trkpt lat="29.2701919" lon="105.5198685"><ele>588.87</ele><time>2025-10-14T20:42:43.000Z</time></trkpt>
        <trkpt lat="29.2702549" lon="105.5199526"><ele>590.56</ele><time>2025-10-14T20:42:51.000Z</time></trkpt>
        <trkpt lat="29.2703105" lon="105.5200377"><ele>592.3</ele><time>2025-10-14T20:43:01.000Z</time></trkpt>
        <trkpt lat="29.2703661" lon="105.5201449"><ele>594.54</ele><time>2025-10-14T20:43:17.000Z</time></trkpt>
        <trkpt lat="29.2704277" lon="105.5202503"><ele>594.48</ele><time>2025-10-14T20:43:27.000Z</time></trkpt>
        <trkpt lat="29.2704964" lon="105.5203365"><ele>592.42</ele><time>2025-10-14T20:43:41.000Z</time></trkpt>
        <trkpt lat="29.2705761" lon="105.5204013"><ele>591.04</ele><time>2025-10-14T20:43:51.000Z</time></trkpt>
        <trkpt lat="29.2706492" lon="105.5204691"><ele>591.84</ele><time>2025-10-14T20:44:01.000Z</time></trkpt>
        <trkpt lat="29.2707316" lon="105.5205346"><ele>593.71</ele><time>2025-10-14T20:44:11.000Z</time></trkpt>
        <trkpt lat="29.2708133" lon="105.5206162"><ele>596.29</ele><time>2025-10-14T20:44:21.000Z</time></trkpt>
        <trkpt lat="29.2708743" lon="105.5207042"><ele>598.57</ele><time>2025-10-14T20:44:31.000Z</time></trkpt>
        <trkpt lat="29.270945" lon="105.5207789"><ele>599.75</ele><time>2025-10-14T20:44:41.000Z</time></trkpt>
        <trkpt lat="29.2710314" lon="105.5208443"><ele>600.8</ele><time>2025-10-14T20:44:49.000Z</time></trkpt>
        <trkpt lat="29.2711061" lon="105.5209266"><ele>600.89</ele><time>2025-10-14T20:44:59.000Z</time></trkpt>
        <trkpt lat="29.2711831" lon="105.5209984"><ele>601.06</ele><time>2025-10-14T20:45:09.000Z</time></trkpt>
        <trkpt lat="29.271255" lon="105.5210883"><ele>601.77</ele><time>2025-10-14T20:45:15.000Z</time></trkpt>
        <trkpt lat="29.2713148" lon="105.52119"><ele>601.65</ele><time>2025-10-14T20:45:23.000Z</time></trkpt>
        <trkpt lat="29.2713919" lon="105.5212615"><ele>600.55</ele><time>2025-10-14T20:45:33.000Z</time></trkpt>
        <trkpt lat="29.2714585" lon="105.5213396"><ele>598.21</ele><time>2025-10-14T20:45:43.000Z</time></trkpt>
        <trkpt lat="29.2715232" lon="105.521435"><ele>594.85</ele><time>2025-10-14T20:45:53.000Z</time></trkpt>
        <trkpt lat="29.2715939" lon="105.5215068"><ele>592.25</ele><time>2025-10-14T20:46:01.000Z</time></trkpt>
        <trkpt lat="29.2716669" lon="105.5215955"><ele>591.11</ele><time>2025-10-14T20:46:11.000Z</time></trkpt>
        <trkpt lat="29.271752" lon="105.5216511"><ele>590.07</ele><time>2025-10-14T20:46:19.000Z</time></trkpt>
        <trkpt lat="29.2718361" lon="105.5217167"><ele>588.92</ele><time>2025-10-14T20:46:29.000Z</time></trkpt>
        <trkpt lat="29.2718879" lon="105.5218238"><ele>589.13</ele><time>2025-10-14T20:46:41.000Z</time></trkpt>
        <trkpt lat="29.2719036" lon="105.5219376"><ele>588.86</ele><time>2025-10-14T20:46:51.000Z</time></trkpt>
        <trkpt lat="29.2718465" lon="105.5220242"><ele>588.4</ele><time>2025-10-14T20:47:05.000Z</time></trkpt>
        <trkpt lat="29.2719383" lon="105.522053"><ele>586.55</ele><time>2025-10-14T20:47:55.000Z</time></trkpt>
        <trkpt lat="29.2718984" lon="105.5220163"><ele>590.36</ele><time>2025-10-14T20:47:59.000Z</time></trkpt>
        <trkpt lat="29.2719705" lon="105.5219856"><ele>593.43</ele><time>2025-10-14T20:48:03.000Z</time></trkpt>
        <trkpt lat="29.2719226" lon="105.5219749"><ele>598.97</ele><time>2025-10-14T20:48:13.000Z</time></trkpt>
        <trkpt lat="29.2718158" lon="105.5219605"><ele>600.92</ele><time>2025-10-14T20:48:31.000Z</time></trkpt>
        <trkpt lat="29.2717797" lon="105.5219273"><ele>598.84</ele><time>2025-10-14T20:48:37.000Z</time></trkpt>
        <trkpt lat="29.2718177" lon="105.5218439"><ele>597.41</ele><time>2025-10-14T20:48:43.000Z</time></trkpt>
        <trkpt lat="29.2719094" lon="105.5217921"><ele>596.41</ele><time>2025-10-14T20:48:53.000Z</time></trkpt>
        <trkpt lat="29.2718985" lon="105.521858"><ele>597.35</ele><time>2025-10-14T20:49:02.000Z</time></trkpt>
        <trkpt lat="29.2718773" lon="105.5219869"><ele>597.07</ele><time>2025-10-14T20:49:38.000Z</time></trkpt>
        <trkpt lat="29.2717675" lon="105.5219847"><ele>592.7</ele><time>2025-10-14T20:49:50.000Z</time></trkpt>
        <trkpt lat="29.271814" lon="105.5219741"><ele>588.78</ele><time>2025-10-14T20:50:34.000Z</time></trkpt>
        <trkpt lat="29.2718709" lon="105.5220354"><ele>586.94</ele><time>2025-10-14T20:50:54.000Z</time></trkpt>
        <trkpt lat="29.2719036" lon="105.5221353"><ele>586.32</ele><time>2025-10-14T20:51:30.000Z</time></trkpt>
        <trkpt lat="29.2718753" lon="105.5222353"><ele>586.48</ele><time>2025-10-14T20:52:26.000Z</time></trkpt>
        <trkpt lat="29.2719092" lon="105.5223343"><ele>591.09</ele><time>2025-10-14T20:52:48.000Z</time></trkpt>
        <trkpt lat="29.271939" lon="105.5224461"><ele>595.96</ele><time>2025-10-14T20:53:10.000Z</time></trkpt>
        <trkpt lat="29.2719792" lon="105.5225516"><ele>598.6</ele><time>2025-10-14T20:53:22.000Z</time></trkpt>
        <trkpt lat="29.2720301" lon="105.5226448"><ele>601.61</ele><time>2025-10-14T20:53:38.000Z</time></trkpt>
        <trkpt lat="29.2720814" lon="105.5227345"><ele>603.84</ele><time>2025-10-14T20:53:54.000Z</time></trkpt>
        <trkpt lat="29.2721204" lon="105.5228284"><ele>606.41</ele><time>2025-10-14T20:54:08.000Z</time></trkpt>
        <trkpt lat="29.272177" lon="105.5229169"><ele>608.21</ele><time>2025-10-14T20:54:24.000Z</time></trkpt>
        <trkpt lat="29.2722378" lon="105.5230083"><ele>610.57</ele><time>2025-10-14T20:54:42.000Z</time></trkpt>
        <trkpt lat="29.2722831" lon="105.5231024"><ele>614.37</ele><time>2025-10-14T20:54:56.000Z</time></trkpt>
        <trkpt lat="29.272277" lon="105.5232076"><ele>617.18</ele><time>2025-10-14T20:55:18.000Z</time></trkpt>
        <trkpt lat="29.2722313" lon="105.5233028"><ele>619.38</ele><time>2025-10-14T20:55:38.000Z</time></trkpt>
        <trkpt lat="29.2721843" lon="105.5234037"><ele>621.37</ele><time>2025-10-14T20:55:56.000Z</time></trkpt>
        <trkpt lat="29.2721005" lon="105.5234681"><ele>625.12</ele><time>2025-10-14T20:56:14.000Z</time></trkpt>
        <trkpt lat="29.2720142" lon="105.5235264"><ele>629.67</ele><time>2025-10-14T20:56:28.000Z</time></trkpt>
        <trkpt lat="29.2719288" lon="105.5235794"><ele>632.91</ele><time>2025-10-14T20:56:40.000Z</time></trkpt>
        <trkpt lat="29.2718355" lon="105.5235766"><ele>634.28</ele><time>2025-10-14T20:56:58.000Z</time></trkpt>
        <trkpt lat="29.271764" lon="105.5235007"><ele>634.25</ele><time>2025-10-14T20:57:16.000Z</time></trkpt>
        <trkpt lat="29.2717077" lon="105.5233954"><ele>634.74</ele><time>2025-10-14T20:57:52.000Z</time></trkpt>
        <trkpt lat="29.2716812" lon="105.5232676"><ele>636.36</ele><time>2025-10-14T20:58:08.000Z</time></trkpt>
        <trkpt lat="29.2716557" lon="105.5231553"><ele>637.15</ele><time>2025-10-14T20:58:18.000Z</time></trkpt>
        <trkpt lat="29.2716183" lon="105.523055"><ele>638.2</ele><time>2025-10-14T21:00:46.000Z</time></trkpt>
        <trkpt lat="29.2715633" lon="105.5229683"><ele>641.43</ele><time>2025-10-14T21:00:58.000Z</time></trkpt>
        <trkpt lat="29.2714928" lon="105.5228732"><ele>643.61</ele><time>2025-10-14T21:01:10.000Z</time></trkpt>
        <trkpt lat="29.2714517" lon="105.5227701"><ele>645.84</ele><time>2025-10-14T21:01:24.000Z</time></trkpt>
        <trkpt lat="29.271416" lon="105.5226595"><ele>646.08</ele><time>2025-10-14T21:01:58.000Z</time></trkpt>
        <trkpt lat="29.271419" lon="105.5225416"><ele>646.22</ele><time>2025-10-14T21:02:06.000Z</time></trkpt>
        <trkpt lat="29.2714292" lon="105.5224241"><ele>646.86</ele><time>2025-10-14T21:02:16.000Z</time></trkpt>
        <trkpt lat="29.2714067" lon="105.5223227"><ele>646.32</ele><time>2025-10-14T21:02:22.000Z</time></trkpt>
        <trkpt lat="29.2714106" lon="105.5222212"><ele>647.26</ele><time>2025-10-14T21:02:32.000Z</time></trkpt>
        <trkpt lat="29.2713474" lon="105.5221679"><ele>647.49</ele><time>2025-10-14T21:02:42.000Z</time></trkpt>
        <trkpt lat="29.2712748" lon="105.5220956"><ele>646.76</ele><time>2025-10-14T21:02:50.000Z</time></trkpt>
        <trkpt lat="29.2711971" lon="105.5220147"><ele>646.52</ele><time>2025-10-14T21:02:58.000Z</time></trkpt>
        <trkpt lat="29.2711346" lon="105.5219265"><ele>647.11</ele><time>2025-10-14T21:03:06.000Z</time></trkpt>
        <trkpt lat="29.2710703" lon="105.5218308"><ele>646.98</ele><time>2025-10-14T21:03:14.000Z</time></trkpt>
        <trkpt lat="29.2709916" lon="105.5217417"><ele>646.77</ele><time>2025-10-14T21:03:22.000Z</time></trkpt>
        <trkpt lat="29.2709252" lon="105.5216507"><ele>645.97</ele><time>2025-10-14T21:03:30.000Z</time></trkpt>
        <trkpt lat="29.2708579" lon="105.5215652"><ele>645.42</ele><time>2025-10-14T21:03:38.000Z</time></trkpt>
        <trkpt lat="29.2707849" lon="105.5214881"><ele>646.19</ele><time>2025-10-14T21:03:46.000Z</time></trkpt>
        <trkpt lat="29.2707049" lon="105.5214151"><ele>646.92</ele><time>2025-10-14T21:03:54.000Z</time></trkpt>
        <trkpt lat="29.2706237" lon="105.5213543"><ele>647.77</ele><time>2025-10-14T21:04:02.000Z</time></trkpt>
        <trkpt lat="29.2705465" lon="105.5212973"><ele>648.47</ele><time>2025-10-14T21:04:10.000Z</time></trkpt>
        <trkpt lat="29.2704622" lon="105.5212421"><ele>650.16</ele><time>2025-10-14T21:04:18.000Z</time></trkpt>
        <trkpt lat="29.2703829" lon="105.5211856"><ele>651.99</ele><time>2025-10-14T21:04:26.000Z</time></trkpt>
        <trkpt lat="29.2702969" lon="105.5211256"><ele>653.41</ele><time>2025-10-14T21:04:34.000Z</time></trkpt>
        <trkpt lat="29.270211" lon="105.5210616"><ele>654.95</ele><time>2025-10-14T21:04:42.000Z</time></trkpt>
        <trkpt lat="29.2701279" lon="105.5210101"><ele>656.39</ele><time>2025-10-14T21:04:50.000Z</time></trkpt>
        <trkpt lat="29.2700461" lon="105.5209471"><ele>658.03</ele><time>2025-10-14T21:04:58.000Z</time></trkpt>
        <trkpt lat="29.269962" lon="105.5208781"><ele>659.05</ele><time>2025-10-14T21:05:06.000Z</time></trkpt>
        <trkpt lat="29.269931" lon="105.5208448"><ele>660.15</ele><time>2025-10-14T21:05:16.000Z</time></trkpt>
        <trkpt lat="29.2698718" lon="105.5207875"><ele>660.56</ele><time>2025-10-14T21:05:26.000Z</time></trkpt>
        <trkpt lat="29.2698057" lon="105.5207186"><ele>661.26</ele><time>2025-10-14T21:05:34.000Z</time></trkpt>
        <trkpt lat="29.2697408" lon="105.5206369"><ele>661.88</ele><time>2025-10-14T21:05:44.000Z</time></trkpt>
        <trkpt lat="29.2696781" lon="105.5205466"><ele>663.78</ele><time>2025-10-14T21:05:58.000Z</time></trkpt>
        <trkpt lat="29.26961" lon="105.5204629"><ele>665.68</ele><time>2025-10-14T21:06:06.000Z</time></trkpt>
        <trkpt lat="29.2695449" lon="105.5203753"><ele>665.95</ele><time>2025-10-14T21:06:22.000Z</time></trkpt>
        <trkpt lat="29.2694724" lon="105.520309"><ele>667.56</ele><time>2025-10-14T21:06:38.000Z</time></trkpt>
        <trkpt lat="29.2695367" lon="105.5203917"><ele>669.77</ele><time>2025-10-14T21:19:18.000Z</time></trkpt>
        <trkpt lat="29.2694783" lon="105.5204833"><ele>670.39</ele><time>2025-10-14T21:19:31.000Z</time></trkpt>
        <trkpt lat="29.2693876" lon="105.5205679"><ele>671.64</ele><time>2025-10-14T21:19:41.000Z</time></trkpt>
        <trkpt lat="29.2693078" lon="105.520641"><ele>670.29</ele><time>2025-10-14T21:19:49.000Z</time></trkpt>
        <trkpt lat="29.269215" lon="105.5206252"><ele>667.24</ele><time>2025-10-14T21:20:03.000Z</time></trkpt>
        <trkpt lat="29.2691175" lon="105.5205878"><ele>665.5</ele><time>2025-10-14T21:20:45.000Z</time></trkpt>
        <trkpt lat="29.269048" lon="105.5205073"><ele>664.9</ele><time>2025-10-14T21:21:11.000Z</time></trkpt>
        <trkpt lat="29.2689856" lon="105.5204213"><ele>664.68</ele><time>2025-10-14T21:21:23.000Z</time></trkpt>
        <trkpt lat="29.2690361" lon="105.520453"><ele>665.21</ele><time>2025-10-14T21:21:47.000Z</time></trkpt>
        <trkpt lat="29.2691193" lon="105.5205167"><ele>662.92</ele><time>2025-10-14T21:21:55.000Z</time></trkpt>
        <trkpt lat="29.2691739" lon="105.5205507"><ele>660.5</ele><time>2025-10-14T21:22:11.000Z</time></trkpt>
        <trkpt lat="29.2692591" lon="105.5205995"><ele>661.23</ele><time>2025-10-14T21:22:29.000Z</time></trkpt>
        <trkpt lat="29.2693417" lon="105.5206717"><ele>660.4</ele><time>2025-10-14T21:22:41.000Z</time></trkpt>
        <trkpt lat="29.2694146" lon="105.5207502"><ele>659.58</ele><time>2025-10-14T21:22:51.000Z</time></trkpt>
        <trkpt lat="29.2694717" lon="105.5208364"><ele>659.89</ele><time>2025-10-14T21:22:59.000Z</time></trkpt>
        <trkpt lat="29.2695392" lon="105.5209079"><ele>661.1</ele><time>2025-10-14T21:23:11.000Z</time></trkpt>
        <trkpt lat="29.2696289" lon="105.520944"><ele>661.27</ele><time>2025-10-14T21:23:21.000Z</time></trkpt>
        <trkpt lat="29.2697328" lon="105.5209436"><ele>661.33</ele><time>2025-10-14T21:23:31.000Z</time></trkpt>
        <trkpt lat="29.2698369" lon="105.5209207"><ele>660.76</ele><time>2025-10-14T21:23:41.000Z</time></trkpt>
        <trkpt lat="29.2699434" lon="105.5209151"><ele>660.86</ele><time>2025-10-14T21:23:51.000Z</time></trkpt>
        <trkpt lat="29.2700361" lon="105.5209388"><ele>661.57</ele><time>2025-10-14T21:23:59.000Z</time></trkpt>
        <trkpt lat="29.2701233" lon="105.5209763"><ele>662.23</ele><time>2025-10-14T21:24:07.000Z</time></trkpt>
        <trkpt lat="29.2702152" lon="105.5210162"><ele>661.61</ele><time>2025-10-14T21:24:19.000Z</time></trkpt>
        <trkpt lat="29.2703081" lon="105.5210782"><ele>662.47</ele><time>2025-10-14T21:24:29.000Z</time></trkpt>
        <trkpt lat="29.2703864" lon="105.5211422"><ele>661.97</ele><time>2025-10-14T21:24:37.000Z</time></trkpt>
        <trkpt lat="29.2704706" lon="105.5212066"><ele>660.09</ele><time>2025-10-14T21:24:45.000Z</time></trkpt>
        <trkpt lat="29.2705489" lon="105.5212677"><ele>657.38</ele><time>2025-10-14T21:24:53.000Z</time></trkpt>
        <trkpt lat="29.2706365" lon="105.5213394"><ele>655.33</ele><time>2025-10-14T21:25:01.000Z</time></trkpt>
        <trkpt lat="29.2707215" lon="105.5214012"><ele>652.52</ele><time>2025-10-14T21:25:09.000Z</time></trkpt>
        <trkpt lat="29.2708028" lon="105.52147"><ele>650.1</ele><time>2025-10-14T21:25:17.000Z</time></trkpt>
        <trkpt lat="29.2708326" lon="105.5215754"><ele>649.8</ele><time>2025-10-14T21:25:27.000Z</time></trkpt>
        <trkpt lat="29.2708752" lon="105.52167"><ele>650.27</ele><time>2025-10-14T21:25:35.000Z</time></trkpt>
        <trkpt lat="29.2709115" lon="105.5217836"><ele>649.51</ele><time>2025-10-14T21:25:45.000Z</time></trkpt>
        <trkpt lat="29.2709175" lon="105.5218535"><ele>648.34</ele><time>2025-10-14T21:25:57.000Z</time></trkpt>
        <trkpt lat="29.2708984" lon="105.5219587"><ele>646.13</ele><time>2025-10-14T21:26:09.000Z</time></trkpt>
        <trkpt lat="29.270882" lon="105.522071"><ele>644.83</ele><time>2025-10-14T21:26:19.000Z</time></trkpt>
        <trkpt lat="29.2708417" lon="105.5221836"><ele>645.37</ele><time>2025-10-14T21:26:27.000Z</time></trkpt>
        <trkpt lat="29.2707574" lon="105.5221964"><ele>645.69</ele><time>2025-10-14T21:26:39.000Z</time></trkpt>
        <trkpt lat="29.2707943" lon="105.5222135"><ele>638.98</ele><time>2025-10-14T21:27:05.000Z</time></trkpt>
        <trkpt lat="29.27085" lon="105.5222888"><ele>634.9</ele><time>2025-10-14T21:27:19.000Z</time></trkpt>
        <trkpt lat="29.2709328" lon="105.5223754"><ele>633.53</ele><time>2025-10-14T21:27:27.000Z</time></trkpt>
        <trkpt lat="29.2710133" lon="105.5224504"><ele>633.94</ele><time>2025-10-14T21:27:35.000Z</time></trkpt>
        <trkpt lat="29.2710857" lon="105.5225308"><ele>632.29</ele><time>2025-10-14T21:27:43.000Z</time></trkpt>
        <trkpt lat="29.2711459" lon="105.5226218"><ele>632.6</ele><time>2025-10-14T21:27:51.000Z</time></trkpt>
        <trkpt lat="29.2711625" lon="105.5227401"><ele>635.14</ele><time>2025-10-14T21:27:59.000Z</time></trkpt>
        <trkpt lat="29.2711823" lon="105.5228625"><ele>637.92</ele><time>2025-10-14T21:28:07.000Z</time></trkpt>
        <trkpt lat="29.271216" lon="105.5229807"><ele>634.98</ele><time>2025-10-14T21:28:15.000Z</time></trkpt>
        <trkpt lat="29.2711482" lon="105.522996"><ele>632.32</ele><time>2025-10-14T21:28:33.000Z</time></trkpt>
        <trkpt lat="29.2710595" lon="105.5229432"><ele>630.12</ele><time>2025-10-14T21:28:43.000Z</time></trkpt>
        <trkpt lat="29.2709562" lon="105.5228684"><ele>629.21</ele><time>2025-10-14T21:28:53.000Z</time></trkpt>
        <trkpt lat="29.2708591" lon="105.522796"><ele>629.59</ele><time>2025-10-14T21:29:01.000Z</time></trkpt>
        <trkpt lat="29.2707472" lon="105.5227404"><ele>629.55</ele><time>2025-10-14T21:29:11.000Z</time></trkpt>
        <trkpt lat="29.2706423" lon="105.5227146"><ele>629.49</ele><time>2025-10-14T21:29:21.000Z</time></trkpt>
        <trkpt lat="29.2705366" lon="105.5227137"><ele>631.26</ele><time>2025-10-14T21:29:29.000Z</time></trkpt>
        <trkpt lat="29.2704421" lon="105.5227569"><ele>632.65</ele><time>2025-10-14T21:29:37.000Z</time></trkpt>
        <trkpt lat="29.270367" lon="105.5228378"><ele>632.59</ele><time>2025-10-14T21:29:43.000Z</time></trkpt>
        <trkpt lat="29.2702948" lon="105.5229202"><ele>631.17</ele><time>2025-10-14T21:29:51.000Z</time></trkpt>
        <trkpt lat="29.2702274" lon="105.5230117"><ele>628.47</ele><time>2025-10-14T21:30:01.000Z</time></trkpt>
        <trkpt lat="29.2702146" lon="105.5231319"><ele>627.24</ele><time>2025-10-14T21:30:11.000Z</time></trkpt>
        <trkpt lat="29.2702574" lon="105.5232484"><ele>624.47</ele><time>2025-10-14T21:30:19.000Z</time></trkpt>
        <trkpt lat="29.2703072" lon="105.5233636"><ele>621.51</ele><time>2025-10-14T21:30:27.000Z</time></trkpt>
        <trkpt lat="29.2703033" lon="105.5234897"><ele>619.1</ele><time>2025-10-14T21:30:37.000Z</time></trkpt>
        <trkpt lat="29.2702268" lon="105.523563"><ele>618.5</ele><time>2025-10-14T21:30:45.000Z</time></trkpt>
        <trkpt lat="29.2701251" lon="105.5236024"><ele>617.51</ele><time>2025-10-14T21:30:53.000Z</time></trkpt>
        <trkpt lat="29.2700227" lon="105.5236255"><ele>617.16</ele><time>2025-10-14T21:30:59.000Z</time></trkpt>
        <trkpt lat="29.2699051" lon="105.5236521"><ele>617.61</ele><time>2025-10-14T21:31:11.000Z</time></trkpt>
        <trkpt lat="29.2697891" lon="105.5236862"><ele>618.42</ele><time>2025-10-14T21:31:21.000Z</time></trkpt>
        <trkpt lat="29.2696805" lon="105.5236793"><ele>618.03</ele><time>2025-10-14T21:31:29.000Z</time></trkpt>
        <trkpt lat="29.2695832" lon="105.5236349"><ele>618.96</ele><time>2025-10-14T21:31:37.000Z</time></trkpt>
        <trkpt lat="29.2694939" lon="105.5235868"><ele>619.67</ele><time>2025-10-14T21:31:45.000Z</time></trkpt>
        <trkpt lat="29.2693868" lon="105.5235469"><ele>620.02</ele><time>2025-10-14T21:31:53.000Z</time></trkpt>
        <trkpt lat="29.2692838" lon="105.5235044"><ele>621.61</ele><time>2025-10-14T21:32:03.000Z</time></trkpt>
        <trkpt lat="29.2691804" lon="105.5234503"><ele>620.91</ele><time>2025-10-14T21:32:11.000Z</time></trkpt>
        <trkpt lat="29.2690844" lon="105.5234412"><ele>619.88</ele><time>2025-10-14T21:32:19.000Z</time></trkpt>
        <trkpt lat="29.2689749" lon="105.523447"><ele>618.08</ele><time>2025-10-14T21:32:29.000Z</time></trkpt>
        <trkpt lat="29.2688652" lon="105.5234474"><ele>616.54</ele><time>2025-10-14T21:32:39.000Z</time></trkpt>
        <trkpt lat="29.2687546" lon="105.5234403"><ele>615.19</ele><time>2025-10-14T21:32:45.000Z</time></trkpt>
        <trkpt lat="29.2686816" lon="105.5233733"><ele>616.05</ele><time>2025-10-14T21:32:55.000Z</time></trkpt>
        <trkpt lat="29.2686275" lon="105.5232757"><ele>618.18</ele><time>2025-10-14T21:33:07.000Z</time></trkpt>
        <trkpt lat="29.2685696" lon="105.5231865"><ele>615.01</ele><time>2025-10-14T21:33:19.000Z</time></trkpt>
        <trkpt lat="29.2685045" lon="105.5230951"><ele>614.14</ele><time>2025-10-14T21:33:31.000Z</time></trkpt>
        <trkpt lat="29.2684497" lon="105.5229904"><ele>614.68</ele><time>2025-10-14T21:33:43.000Z</time></trkpt>
        <trkpt lat="29.2684123" lon="105.5228742"><ele>613.87</ele><time>2025-10-14T21:33:53.000Z</time></trkpt>
        <trkpt lat="29.2683982" lon="105.522745"><ele>613.88</ele><time>2025-10-14T21:34:05.000Z</time></trkpt>
        <trkpt lat="29.2683751" lon="105.522621"><ele>615.1</ele><time>2025-10-14T21:34:15.000Z</time></trkpt>
        <trkpt lat="29.2683078" lon="105.5225341"><ele>616.22</ele><time>2025-10-14T21:34:27.000Z</time></trkpt>
        <trkpt lat="29.2682127" lon="105.5225564"><ele>616.68</ele><time>2025-10-14T21:34:37.000Z</time></trkpt>
        <trkpt lat="29.2681195" lon="105.5226131"><ele>615.92</ele><time>2025-10-14T21:34:45.000Z</time></trkpt>
        <trkpt lat="29.268026" lon="105.522654"><ele>616.17</ele><time>2025-10-14T21:34:53.000Z</time></trkpt>
        <trkpt lat="29.2679311" lon="105.5226486"><ele>617.47</ele><time>2025-10-14T21:35:01.000Z</time></trkpt>
        <trkpt lat="29.2678339" lon="105.5226154"><ele>618.17</ele><time>2025-10-14T21:35:09.000Z</time></trkpt>
        <trkpt lat="29.2677313" lon="105.522571"><ele>618.61</ele><time>2025-10-14T21:35:19.000Z</time></trkpt>
        <trkpt lat="29.2676334" lon="105.5225786"><ele>618.82</ele><time>2025-10-14T21:35:29.000Z</time></trkpt>
        <trkpt lat="29.2675577" lon="105.5226446"><ele>617.95</ele><time>2025-10-14T21:35:37.000Z</time></trkpt>
        <trkpt lat="29.2674838" lon="105.5227138"><ele>617.89</ele><time>2025-10-14T21:35:45.000Z</time></trkpt>
        <trkpt lat="29.2673969" lon="105.5227875"><ele>617.12</ele><time>2025-10-14T21:35:57.000Z</time></trkpt>
        <trkpt lat="29.2673033" lon="105.5228241"><ele>616.55</ele><time>2025-10-14T21:36:07.000Z</time></trkpt>
        <trkpt lat="29.2671999" lon="105.5228105"><ele>617.56</ele><time>2025-10-14T21:36:19.000Z</time></trkpt>
        <trkpt lat="29.2671036" lon="105.5227598"><ele>618.83</ele><time>2025-10-14T21:36:28.000Z</time></trkpt>
        <trkpt lat="29.2670182" lon="105.5227053"><ele>620.75</ele><time>2025-10-14T21:36:44.000Z</time></trkpt>
        <trkpt lat="29.2669306" lon="105.5226481"><ele>621.63</ele><time>2025-10-14T21:36:54.000Z</time></trkpt>
        <trkpt lat="29.2668541" lon="105.5225634"><ele>621.66</ele><time>2025-10-14T21:37:04.000Z</time></trkpt>
        <trkpt lat="29.266784" lon="105.5224813"><ele>618.58</ele><time>2025-10-14T21:37:12.000Z</time></trkpt>
        <trkpt lat="29.266743" lon="105.5223847"><ele>616.91</ele><time>2025-10-14T21:37:20.000Z</time></trkpt>
        <trkpt lat="29.266717" lon="105.5222702"><ele>616</ele><time>2025-10-14T21:37:30.000Z</time></trkpt>
        <trkpt lat="29.2667171" lon="105.522153"><ele>616.17</ele><time>2025-10-14T21:37:38.000Z</time></trkpt>
        <trkpt lat="29.2667285" lon="105.5220277"><ele>615.15</ele><time>2025-10-14T21:37:46.000Z</time></trkpt>
        <trkpt lat="29.2667204" lon="105.5219168"><ele>612.42</ele><time>2025-10-14T21:37:56.000Z</time></trkpt>
        <trkpt lat="29.2667044" lon="105.5218058"><ele>610.73</ele><time>2025-10-14T21:38:02.000Z</time></trkpt>
        <trkpt lat="29.266682" lon="105.5217009"><ele>609.34</ele><time>2025-10-14T21:38:12.000Z</time></trkpt>
        <trkpt lat="29.2666901" lon="105.5215893"><ele>607.39</ele><time>2025-10-14T21:38:21.000Z</time></trkpt>
        <trkpt lat="29.2667414" lon="105.5214998"><ele>606.19</ele><time>2025-10-14T21:38:29.000Z</time></trkpt>
        <trkpt lat="29.2668195" lon="105.5214399"><ele>604.26</ele><time>2025-10-14T21:38:37.000Z</time></trkpt>
        <trkpt lat="29.2669095" lon="105.5213822"><ele>603.85</ele><time>2025-10-14T21:38:45.000Z</time></trkpt>
        <trkpt lat="29.266973" lon="105.5213029"><ele>602.23</ele><time>2025-10-14T21:38:53.000Z</time></trkpt>
        <trkpt lat="29.2669984" lon="105.5212008"><ele>600.24</ele><time>2025-10-14T21:39:01.000Z</time></trkpt>
        <trkpt lat="29.2669499" lon="105.5211046"><ele>599.1</ele><time>2025-10-14T21:39:11.000Z</time></trkpt>
        <trkpt lat="29.2668703" lon="105.521007"><ele>599.1</ele><time>2025-10-14T21:39:21.000Z</time></trkpt>
        <trkpt lat="29.266821" lon="105.5208969"><ele>602.33</ele><time>2025-10-14T21:39:31.000Z</time></trkpt>
        <trkpt lat="29.2668172" lon="105.5207762"><ele>601.89</ele><time>2025-10-14T21:39:43.000Z</time></trkpt>
        <trkpt lat="29.2668333" lon="105.5206601"><ele>602.02</ele><time>2025-10-14T21:39:53.000Z</time></trkpt>
        <trkpt lat="29.2668408" lon="105.5205417"><ele>601.19</ele><time>2025-10-14T21:40:03.000Z</time></trkpt>
        <trkpt lat="29.2668328" lon="105.5204353"><ele>601.8</ele><time>2025-10-14T21:40:13.000Z</time></trkpt>
        <trkpt lat="29.2668186" lon="105.5203197"><ele>602.19</ele><time>2025-10-14T21:40:23.000Z</time></trkpt>
        <trkpt lat="29.2668025" lon="105.5201953"><ele>601.85</ele><time>2025-10-14T21:40:33.000Z</time></trkpt>
        <trkpt lat="29.2667701" lon="105.5200855"><ele>602</ele><time>2025-10-14T21:40:43.000Z</time></trkpt>
        <trkpt lat="29.2667409" lon="105.519974"><ele>604.62</ele><time>2025-10-14T21:40:53.000Z</time></trkpt>
        <trkpt lat="29.2667026" lon="105.5198665"><ele>606.68</ele><time>2025-10-14T21:41:07.000Z</time></trkpt>
        <trkpt lat="29.2666603" lon="105.5197565"><ele>607.59</ele><time>2025-10-14T21:41:17.000Z</time></trkpt>
        <trkpt lat="29.2665959" lon="105.5196729"><ele>604.97</ele><time>2025-10-14T21:41:27.000Z</time></trkpt>
        <trkpt lat="29.2665591" lon="105.51958"><ele>606.14</ele><time>2025-10-14T21:41:37.000Z</time></trkpt>
        <trkpt lat="29.2665802" lon="105.5194736"><ele>608.28</ele><time>2025-10-14T21:41:51.000Z</time></trkpt>
        <trkpt lat="29.2666093" lon="105.5193595"><ele>608.54</ele><time>2025-10-14T21:42:03.000Z</time></trkpt>
        <trkpt lat="29.2666127" lon="105.5192431"><ele>608.01</ele><time>2025-10-14T21:42:13.000Z</time></trkpt>
        <trkpt lat="29.2665844" lon="105.5191379"><ele>606.71</ele><time>2025-10-14T21:42:23.000Z</time></trkpt>
        <trkpt lat="29.2665271" lon="105.5190449"><ele>605.89</ele><time>2025-10-14T21:42:37.000Z</time></trkpt>
        <trkpt lat="29.2664623" lon="105.5189559"><ele>604.56</ele><time>2025-10-14T21:42:47.000Z</time></trkpt>
        <trkpt lat="29.2663874" lon="105.5188814"><ele>603.55</ele><time>2025-10-14T21:42:57.000Z</time></trkpt>
        <trkpt lat="29.2662854" lon="105.5188515"><ele>603.14</ele><time>2025-10-14T21:43:07.000Z</time></trkpt>
        <trkpt lat="29.2661826" lon="105.5188306"><ele>602.91</ele><time>2025-10-14T21:43:17.000Z</time></trkpt>
        <trkpt lat="29.2660842" lon="105.5187998"><ele>603.16</ele><time>2025-10-14T21:43:27.000Z</time></trkpt>
        <trkpt lat="29.2660025" lon="105.5187458"><ele>601.63</ele><time>2025-10-14T21:43:35.000Z</time></trkpt>
        <trkpt lat="29.2659235" lon="105.518679"><ele>599.42</ele><time>2025-10-14T21:43:45.000Z</time></trkpt>
        <trkpt lat="29.2658336" lon="105.518621"><ele>597.61</ele><time>2025-10-14T21:43:55.000Z</time></trkpt>
        <trkpt lat="29.2657517" lon="105.5185486"><ele>596.06</ele><time>2025-10-14T21:44:05.000Z</time></trkpt>
        <trkpt lat="29.2656668" lon="105.5184674"><ele>594.05</ele><time>2025-10-14T21:44:13.000Z</time></trkpt>
        <trkpt lat="29.2655956" lon="105.5183725"><ele>591.62</ele><time>2025-10-14T21:44:25.000Z</time></trkpt>
        <trkpt lat="29.265508" lon="105.5183238"><ele>590.71</ele><time>2025-10-14T21:44:37.000Z</time></trkpt>
        <trkpt lat="29.2655127" lon="105.5182417"><ele>591.31</ele><time>2025-10-14T21:44:47.000Z</time></trkpt>
        <trkpt lat="29.2654903" lon="105.5181406"><ele>590.96</ele><time>2025-10-14T21:44:57.000Z</time></trkpt>
        <trkpt lat="29.2654381" lon="105.5180435"><ele>590.72</ele><time>2025-10-14T21:45:07.000Z</time></trkpt>
        <trkpt lat="29.2654016" lon="105.5179304"><ele>590.41</ele><time>2025-10-14T21:45:17.000Z</time></trkpt>
        <trkpt lat="29.2653318" lon="105.5178485"><ele>588.99</ele><time>2025-10-14T21:45:27.000Z</time></trkpt>
        <trkpt lat="29.2652445" lon="105.5177816"><ele>587.36</ele><time>2025-10-14T21:45:35.000Z</time></trkpt>
        <trkpt lat="29.2651525" lon="105.5177504"><ele>584.41</ele><time>2025-10-14T21:45:43.000Z</time></trkpt>
        <trkpt lat="29.2650493" lon="105.517697"><ele>581.65</ele><time>2025-10-14T21:45:51.000Z</time></trkpt>
        <trkpt lat="29.2649646" lon="105.5176241"><ele>581.41</ele><time>2025-10-14T21:45:59.000Z</time></trkpt>
        <trkpt lat="29.2649618" lon="105.5176866"><ele>579.9</ele><time>2025-10-14T21:46:27.000Z</time></trkpt>
        <trkpt lat="29.2650124" lon="105.5177795"><ele>579.13</ele><time>2025-10-14T21:46:43.000Z</time></trkpt>
        <trkpt lat="29.265064" lon="105.5178853"><ele>577.31</ele><time>2025-10-14T21:46:57.000Z</time></trkpt>
        <trkpt lat="29.2651219" lon="105.5179868"><ele>576.66</ele><time>2025-10-14T21:47:03.000Z</time></trkpt>
        <trkpt lat="29.2651591" lon="105.5180906"><ele>575.99</ele><time>2025-10-14T21:47:11.000Z</time></trkpt>
        <trkpt lat="29.2651869" lon="105.5182037"><ele>575.99</ele><time>2025-10-14T21:47:21.000Z</time></trkpt>
        <trkpt lat="29.2651888" lon="105.5183217"><ele>573.67</ele><time>2025-10-14T21:47:29.000Z</time></trkpt>
        <trkpt lat="29.2651492" lon="105.5184355"><ele>572.95</ele><time>2025-10-14T21:47:37.000Z</time></trkpt>
        <trkpt lat="29.2650638" lon="105.518513"><ele>573.27</ele><time>2025-10-14T21:47:45.000Z</time></trkpt>
        <trkpt lat="29.2649597" lon="105.5185333"><ele>573.63</ele><time>2025-10-14T21:47:51.000Z</time></trkpt>
        <trkpt lat="29.264868" lon="105.5184882"><ele>571.51</ele><time>2025-10-14T21:48:03.000Z</time></trkpt>
        <trkpt lat="29.2647691" lon="105.5184547"><ele>563.63</ele><time>2025-10-14T21:48:11.000Z</time></trkpt>
        <trkpt lat="29.2646999" lon="105.5185113"><ele>559.79</ele><time>2025-10-14T21:48:23.000Z</time></trkpt>
        <trkpt lat="29.26464" lon="105.5186058"><ele>556.31</ele><time>2025-10-14T21:48:31.000Z</time></trkpt>
        <trkpt lat="29.2646012" lon="105.5187167"><ele>554.97</ele><time>2025-10-14T21:48:37.000Z</time></trkpt>
        <trkpt lat="29.2645789" lon="105.5188309"><ele>555.59</ele><time>2025-10-14T21:48:45.000Z</time></trkpt>
        <trkpt lat="29.2645297" lon="105.5189269"><ele>552.41</ele><time>2025-10-14T21:48:53.000Z</time></trkpt>
        <trkpt lat="29.264455" lon="105.5190046"><ele>550.04</ele><time>2025-10-14T21:49:01.000Z</time></trkpt>
        <trkpt lat="29.2643766" lon="105.5190906"><ele>550.32</ele><time>2025-10-14T21:49:11.000Z</time></trkpt>
        <trkpt lat="29.2643084" lon="105.5191844"><ele>550.36</ele><time>2025-10-14T21:49:19.000Z</time></trkpt>
        <trkpt lat="29.2642176" lon="105.5192736"><ele>549.34</ele><time>2025-10-14T21:49:29.000Z</time></trkpt>
        <trkpt lat="29.2641272" lon="105.519342"><ele>547.6</ele><time>2025-10-14T21:49:37.000Z</time></trkpt>
        <trkpt lat="29.2640407" lon="105.5194267"><ele>547.13</ele><time>2025-10-14T21:49:47.000Z</time></trkpt>
        <trkpt lat="29.2639539" lon="105.5195034"><ele>543.55</ele><time>2025-10-14T21:49:57.000Z</time></trkpt>
        <trkpt lat="29.2638707" lon="105.5195695"><ele>540.64</ele><time>2025-10-14T21:50:05.000Z</time></trkpt>
        <trkpt lat="29.2638241" lon="105.5196682"><ele>539.76</ele><time>2025-10-14T21:50:11.000Z</time></trkpt>
        <trkpt lat="29.2637506" lon="105.5197471"><ele>538.58</ele><time>2025-10-14T21:50:21.000Z</time></trkpt>
        <trkpt lat="29.2636789" lon="105.5198373"><ele>538.84</ele><time>2025-10-14T21:50:31.000Z</time></trkpt>
        <trkpt lat="29.263617" lon="105.5199271"><ele>537.15</ele><time>2025-10-14T21:50:37.000Z</time></trkpt>
        <trkpt lat="29.2635626" lon="105.5200175"><ele>537.47</ele><time>2025-10-14T21:50:45.000Z</time></trkpt>
        <trkpt lat="29.2634929" lon="105.5200978"><ele>534.52</ele><time>2025-10-14T21:50:53.000Z</time></trkpt>
        <trkpt lat="29.263437" lon="105.5201857"><ele>533.05</ele><time>2025-10-14T21:51:01.000Z</time></trkpt>
        <trkpt lat="29.2633841" lon="105.520278"><ele>533.11</ele><time>2025-10-14T21:51:09.000Z</time></trkpt>
        <trkpt lat="29.2633568" lon="105.5203968"><ele>532.16</ele><time>2025-10-14T21:51:19.000Z</time></trkpt>
        <trkpt lat="29.2633548" lon="105.5205163"><ele>530.63</ele><time>2025-10-14T21:51:27.000Z</time></trkpt>
        <trkpt lat="29.2633615" lon="105.5206493"><ele>530.79</ele><time>2025-10-14T21:51:35.000Z</time></trkpt>
        <trkpt lat="29.263368" lon="105.5207639"><ele>530.88</ele><time>2025-10-14T21:51:43.000Z</time></trkpt>
        <trkpt lat="29.2633515" lon="105.5208692"><ele>529.51</ele><time>2025-10-14T21:51:51.000Z</time></trkpt>
        <trkpt lat="29.2633081" lon="105.5209778"><ele>528.35</ele><time>2025-10-14T21:51:59.000Z</time></trkpt>
        <trkpt lat="29.2632657" lon="105.5210821"><ele>526.65</ele><time>2025-10-14T21:52:05.000Z</time></trkpt>
        <trkpt lat="29.2632419" lon="105.5211861"><ele>525.81</ele><time>2025-10-14T21:52:15.000Z</time></trkpt>
        <trkpt lat="29.2632496" lon="105.5212943"><ele>524.99</ele><time>2025-10-14T21:52:23.000Z</time></trkpt>
        <trkpt lat="29.2633071" lon="105.521384"><ele>524</ele><time>2025-10-14T21:52:31.000Z</time></trkpt>
        <trkpt lat="29.2633908" lon="105.5214469"><ele>521.12</ele><time>2025-10-14T21:52:39.000Z</time></trkpt>
        <trkpt lat="29.2634666" lon="105.5215147"><ele>519.78</ele><time>2025-10-14T21:52:49.000Z</time></trkpt>
        <trkpt lat="29.2635497" lon="105.52157"><ele>517.89</ele><time>2025-10-14T21:52:55.000Z</time></trkpt>
        <trkpt lat="29.263643" lon="105.5216214"><ele>515.49</ele><time>2025-10-14T21:53:03.000Z</time></trkpt>
        <trkpt lat="29.2637212" lon="105.5216889"><ele>513.69</ele><time>2025-10-14T21:53:13.000Z</time></trkpt>
        <trkpt lat="29.2638029" lon="105.5217643"><ele>512.7</ele><time>2025-10-14T21:53:23.000Z</time></trkpt>
        <trkpt lat="29.2638734" lon="105.5218683"><ele>514.34</ele><time>2025-10-14T21:53:31.000Z</time></trkpt>
        <trkpt lat="29.2638898" lon="105.5219872"><ele>515.4</ele><time>2025-10-14T21:53:41.000Z</time></trkpt>
        <trkpt lat="29.2638543" lon="105.5220933"><ele>517.08</ele><time>2025-10-14T21:53:47.000Z</time></trkpt>
        <trkpt lat="29.2637769" lon="105.5221679"><ele>518.12</ele><time>2025-10-14T21:53:55.000Z</time></trkpt>
        <trkpt lat="29.2636712" lon="105.5222131"><ele>518.11</ele><time>2025-10-14T21:54:03.000Z</time></trkpt>
        <trkpt lat="29.2635711" lon="105.5222467"><ele>518.15</ele><time>2025-10-14T21:54:11.000Z</time></trkpt>
        <trkpt lat="29.2634785" lon="105.5222772"><ele>517.61</ele><time>2025-10-14T21:54:19.000Z</time></trkpt>
        <trkpt lat="29.2633728" lon="105.5223023"><ele>516.7</ele><time>2025-10-14T21:54:29.000Z</time></trkpt>
        <trkpt lat="29.2632843" lon="105.5223466"><ele>515.02</ele><time>2025-10-14T21:54:37.000Z</time></trkpt>
        <trkpt lat="29.2632143" lon="105.5224139"><ele>513.51</ele><time>2025-10-14T21:54:45.000Z</time></trkpt>
        <trkpt lat="29.2631494" lon="105.5224903"><ele>512.6</ele><time>2025-10-14T21:54:53.000Z</time></trkpt>
        <trkpt lat="29.2630801" lon="105.5225773"><ele>511.78</ele><time>2025-10-14T21:55:03.000Z</time></trkpt>
        <trkpt lat="29.2630171" lon="105.5226692"><ele>509.38</ele><time>2025-10-14T21:55:11.000Z</time></trkpt>
        <trkpt lat="29.2629549" lon="105.522758"><ele>507.5</ele><time>2025-10-14T21:55:21.000Z</time></trkpt>
        <trkpt lat="29.2628962" lon="105.5228572"><ele>506.94</ele><time>2025-10-14T21:55:29.000Z</time></trkpt>
        <trkpt lat="29.2628122" lon="105.5229385"><ele>504</ele><time>2025-10-14T21:55:39.000Z</time></trkpt>
        <trkpt lat="29.2627224" lon="105.5229901"><ele>503.61</ele><time>2025-10-14T21:55:47.000Z</time></trkpt>
        <trkpt lat="29.2626279" lon="105.523025"><ele>504.08</ele><time>2025-10-14T21:55:55.000Z</time></trkpt>
        <trkpt lat="29.2625402" lon="105.523086"><ele>504.65</ele><time>2025-10-14T21:56:05.000Z</time></trkpt>
        <trkpt lat="29.2624833" lon="105.5231771"><ele>502.78</ele><time>2025-10-14T21:56:15.000Z</time></trkpt>
        <trkpt lat="29.2624714" lon="105.5232851"><ele>499.78</ele><time>2025-10-14T21:56:25.000Z</time></trkpt>
        <trkpt lat="29.2624706" lon="105.5233987"><ele>498.62</ele><time>2025-10-14T21:56:33.000Z</time></trkpt>
        <trkpt lat="29.2624917" lon="105.5235249"><ele>498.14</ele><time>2025-10-14T21:56:43.000Z</time></trkpt>
        <trkpt lat="29.2625085" lon="105.5236394"><ele>497.82</ele><time>2025-10-14T21:56:51.000Z</time></trkpt>
        <trkpt lat="29.2624937" lon="105.5237495"><ele>496.01</ele><time>2025-10-14T21:56:59.000Z</time></trkpt>
        <trkpt lat="29.2624662" lon="105.5238516"><ele>497.55</ele><time>2025-10-14T21:57:07.000Z</time></trkpt>
        <trkpt lat="29.2623928" lon="105.5239146"><ele>497.74</ele><time>2025-10-14T21:57:15.000Z</time></trkpt>
        <trkpt lat="29.2623038" lon="105.5239502"><ele>497.94</ele><time>2025-10-14T21:57:21.000Z</time></trkpt>
        <trkpt lat="29.2622061" lon="105.5239443"><ele>498.35</ele><time>2025-10-14T21:57:29.000Z</time></trkpt>
        <trkpt lat="29.2621065" lon="105.5239737"><ele>499.75</ele><time>2025-10-14T21:57:39.000Z</time></trkpt>
        <trkpt lat="29.2620181" lon="105.5240172"><ele>500.03</ele><time>2025-10-14T21:57:47.000Z</time></trkpt>
        <trkpt lat="29.2619286" lon="105.5240509"><ele>498.9</ele><time>2025-10-14T21:57:55.000Z</time></trkpt>
        <trkpt lat="29.2618374" lon="105.5240802"><ele>498</ele><time>2025-10-14T21:58:01.000Z</time></trkpt>
        <trkpt lat="29.2617493" lon="105.5241094"><ele>499.59</ele><time>2025-10-14T21:58:09.000Z</time></trkpt>
        <trkpt lat="29.2616625" lon="105.5241451"><ele>499.94</ele><time>2025-10-14T21:58:17.000Z</time></trkpt>
        <trkpt lat="29.2615836" lon="105.5241996"><ele>497.94</ele><time>2025-10-14T21:58:25.000Z</time></trkpt>
        <trkpt lat="29.2615263" lon="105.5242808"><ele>495.21</ele><time>2025-10-14T21:58:33.000Z</time></trkpt>
        <trkpt lat="29.2614713" lon="105.524378"><ele>493.44</ele><time>2025-10-14T21:58:41.000Z</time></trkpt>
        <trkpt lat="29.2614157" lon="105.5244866"><ele>492.82</ele><time>2025-10-14T21:58:51.000Z</time></trkpt>
        <trkpt lat="29.2613602" lon="105.524596"><ele>489.11</ele><time>2025-10-14T21:59:01.000Z</time></trkpt>
        <trkpt lat="29.2613156" lon="105.5247041"><ele>487.77</ele><time>2025-10-14T21:59:11.000Z</time></trkpt>
        <trkpt lat="29.2612835" lon="105.5248296"><ele>489.46</ele><time>2025-10-14T21:59:21.000Z</time></trkpt>
        <trkpt lat="29.2612841" lon="105.5249697"><ele>491.72</ele><time>2025-10-14T21:59:31.000Z</time></trkpt>
        <trkpt lat="29.2612943" lon="105.5250953"><ele>493.86</ele><time>2025-10-14T21:59:41.000Z</time></trkpt>
        <trkpt lat="29.2612881" lon="105.5252165"><ele>495.51</ele><time>2025-10-14T21:59:49.000Z</time></trkpt>
        <trkpt lat="29.2612566" lon="105.5253338"><ele>496.63</ele><time>2025-10-14T21:59:59.000Z</time></trkpt>
        <trkpt lat="29.2611832" lon="105.5254098"><ele>497.9</ele><time>2025-10-14T22:00:13.000Z</time></trkpt>
        <trkpt lat="29.2610984" lon="105.5254924"><ele>499.58</ele><time>2025-10-14T22:00:23.000Z</time></trkpt>
        <trkpt lat="29.261025" lon="105.5255735"><ele>498.64</ele><time>2025-10-14T22:00:33.000Z</time></trkpt>
        <trkpt lat="29.2609442" lon="105.5256563"><ele>496.99</ele><time>2025-10-14T22:00:45.000Z</time></trkpt>
        <trkpt lat="29.2608913" lon="105.5257553"><ele>494.2</ele><time>2025-10-14T22:00:57.000Z</time></trkpt>
        <trkpt lat="29.2608306" lon="105.5258467"><ele>492.69</ele><time>2025-10-14T22:01:05.000Z</time></trkpt>
        <trkpt lat="29.2607382" lon="105.525892"><ele>493.08</ele><time>2025-10-14T22:01:15.000Z</time></trkpt>
        <trkpt lat="29.2606529" lon="105.5259404"><ele>493.69</ele><time>2025-10-14T22:01:25.000Z</time></trkpt>
        <trkpt lat="29.2605706" lon="105.525995"><ele>493.18</ele><time>2025-10-14T22:01:35.000Z</time></trkpt>
        <trkpt lat="29.2604873" lon="105.5260619"><ele>492.33</ele><time>2025-10-14T22:01:45.000Z</time></trkpt>
        <trkpt lat="29.2604225" lon="105.526156"><ele>493.35</ele><time>2025-10-14T22:01:51.000Z</time></trkpt>
        <trkpt lat="29.2603671" lon="105.5262558"><ele>495.01</ele><time>2025-10-14T22:02:01.000Z</time></trkpt>
        <trkpt lat="29.2603217" lon="105.5263621"><ele>495.26</ele><time>2025-10-14T22:02:09.000Z</time></trkpt>
        <trkpt lat="29.260299" lon="105.5264734"><ele>495.36</ele><time>2025-10-14T22:02:21.000Z</time></trkpt>
        <trkpt lat="29.2602534" lon="105.5265792"><ele>493.62</ele><time>2025-10-14T22:02:29.000Z</time></trkpt>
        <trkpt lat="29.2602101" lon="105.5266847"><ele>492.4</ele><time>2025-10-14T22:02:37.000Z</time></trkpt>
        <trkpt lat="29.2601693" lon="105.5267999"><ele>491.41</ele><time>2025-10-14T22:02:47.000Z</time></trkpt>
        <trkpt lat="29.260113" lon="105.5269024"><ele>489.99</ele><time>2025-10-14T22:02:57.000Z</time></trkpt>
        <trkpt lat="29.2600774" lon="105.5270122"><ele>489.35</ele><time>2025-10-14T22:03:07.000Z</time></trkpt>
        <trkpt lat="29.2600487" lon="105.5271301"><ele>489.8</ele><time>2025-10-14T22:03:17.000Z</time></trkpt>
        <trkpt lat="29.2600069" lon="105.5271843"><ele>489.54</ele><time>2025-10-14T22:03:31.000Z</time></trkpt>
        <trkpt lat="29.2600008" lon="105.5272749"><ele>489.39</ele><time>2025-10-14T22:03:57.000Z</time></trkpt>
        <trkpt lat="29.2599869" lon="105.5273807"><ele>488.92</ele><time>2025-10-14T22:04:07.000Z</time></trkpt>
        <trkpt lat="29.2599858" lon="105.5274905"><ele>489.04</ele><time>2025-10-14T22:04:17.000Z</time></trkpt>
        <trkpt lat="29.2599775" lon="105.5276083"><ele>488.55</ele><time>2025-10-14T22:04:27.000Z</time></trkpt>
        <trkpt lat="29.259982" lon="105.5277208"><ele>487.88</ele><time>2025-10-14T22:04:37.000Z</time></trkpt>
        <trkpt lat="29.2599723" lon="105.5278329"><ele>486.86</ele><time>2025-10-14T22:04:47.000Z</time></trkpt>
        <trkpt lat="29.2599515" lon="105.5279499"><ele>485.07</ele><time>2025-10-14T22:04:57.000Z</time></trkpt>
        <trkpt lat="29.2599409" lon="105.5280572"><ele>484.05</ele><time>2025-10-14T22:05:05.000Z</time></trkpt>
        <trkpt lat="29.2599398" lon="105.5281745"><ele>483.9</ele><time>2025-10-14T22:05:17.000Z</time></trkpt>
        <trkpt lat="29.2599357" lon="105.5282834"><ele>483.34</ele><time>2025-10-14T22:05:27.000Z</time></trkpt>
        <trkpt lat="29.2599413" lon="105.5284125"><ele>482.29</ele><time>2025-10-14T22:05:37.000Z</time></trkpt>
        <trkpt lat="29.2599478" lon="105.5285331"><ele>480.79</ele><time>2025-10-14T22:05:47.000Z</time></trkpt>
        <trkpt lat="29.2599527" lon="105.5286558"><ele>480.45</ele><time>2025-10-14T22:05:57.000Z</time></trkpt>
        <trkpt lat="29.2599416" lon="105.5287655"><ele>480.51</ele><time>2025-10-14T22:06:07.000Z</time></trkpt>
        <trkpt lat="29.2599233" lon="105.5288766"><ele>479.73</ele><time>2025-10-14T22:06:17.000Z</time></trkpt>
        <trkpt lat="29.2598932" lon="105.5289951"><ele>478.26</ele><time>2025-10-14T22:06:27.000Z</time></trkpt>
        <trkpt lat="29.2598684" lon="105.5291102"><ele>477.03</ele><time>2025-10-14T22:06:37.000Z</time></trkpt>
        <trkpt lat="29.2598266" lon="105.5292139"><ele>477.62</ele><time>2025-10-14T22:06:45.000Z</time></trkpt>
        <trkpt lat="29.2597349" lon="105.5292634"><ele>478.26</ele><time>2025-10-14T22:06:55.000Z</time></trkpt>
        <trkpt lat="29.2596313" lon="105.5292323"><ele>478.92</ele><time>2025-10-14T22:07:05.000Z</time></trkpt>
        <trkpt lat="29.259544" lon="105.5291525"><ele>478.7</ele><time>2025-10-14T22:07:15.000Z</time></trkpt>
        <trkpt lat="29.2594614" lon="105.5290575"><ele>480.55</ele><time>2025-10-14T22:07:25.000Z</time></trkpt>
        <trkpt lat="29.2594059" lon="105.5289539"><ele>481.69</ele><time>2025-10-14T22:07:35.000Z</time></trkpt>
        <trkpt lat="29.2593602" lon="105.5288488"><ele>480.4</ele><time>2025-10-14T22:07:45.000Z</time></trkpt>
        <trkpt lat="29.2592991" lon="105.5287469"><ele>479.58</ele><time>2025-10-14T22:07:55.000Z</time></trkpt>
        <trkpt lat="29.2592023" lon="105.5287015"><ele>481.14</ele><time>2025-10-14T22:08:07.000Z</time></trkpt>
        <trkpt lat="29.2591012" lon="105.5287225"><ele>483.06</ele><time>2025-10-14T22:08:15.000Z</time></trkpt>
        <trkpt lat="29.2590107" lon="105.5287836"><ele>486.35</ele><time>2025-10-14T22:08:23.000Z</time></trkpt>
        <trkpt lat="29.2589779" lon="105.5288907"><ele>488.43</ele><time>2025-10-14T22:08:33.000Z</time></trkpt>
        <trkpt lat="29.2589726" lon="105.5290197"><ele>488.85</ele><time>2025-10-14T22:08:47.000Z</time></trkpt>
        <trkpt lat="29.2589768" lon="105.5291415"><ele>487.15</ele><time>2025-10-14T22:08:55.000Z</time></trkpt>
        <trkpt lat="29.258975" lon="105.529263"><ele>487.47</ele><time>2025-10-14T22:09:03.000Z</time></trkpt>
        <trkpt lat="29.2589575" lon="105.5293878"><ele>488.69</ele><time>2025-10-14T22:09:13.000Z</time></trkpt>
        <trkpt lat="29.2589485" lon="105.5295141"><ele>488.87</ele><time>2025-10-14T22:09:23.000Z</time></trkpt>
        <trkpt lat="29.2589268" lon="105.5296278"><ele>487.98</ele><time>2025-10-14T22:09:31.000Z</time></trkpt>
        <trkpt lat="29.2588964" lon="105.5297352"><ele>487.26</ele><time>2025-10-14T22:09:41.000Z</time></trkpt>
        <trkpt lat="29.2588458" lon="105.5298246"><ele>487.23</ele><time>2025-10-14T22:09:49.000Z</time></trkpt>
        <trkpt lat="29.2588" lon="105.5299191"><ele>487.69</ele><time>2025-10-14T22:09:59.000Z</time></trkpt>
        <trkpt lat="29.2587423" lon="105.5300019"><ele>488</ele><time>2025-10-14T22:10:07.000Z</time></trkpt>
        <trkpt lat="29.2586922" lon="105.5300983"><ele>489.5</ele><time>2025-10-14T22:10:17.000Z</time></trkpt>
        <trkpt lat="29.258647" lon="105.5301955"><ele>490.06</ele><time>2025-10-14T22:10:25.000Z</time></trkpt>
        <trkpt lat="29.2585824" lon="105.5302852"><ele>489.26</ele><time>2025-10-14T22:10:35.000Z</time></trkpt>
        <trkpt lat="29.2584917" lon="105.5303394"><ele>488.72</ele><time>2025-10-14T22:10:47.000Z</time></trkpt>
        <trkpt lat="29.2583949" lon="105.5303096"><ele>488.24</ele><time>2025-10-14T22:10:57.000Z</time></trkpt>
        <trkpt lat="29.2582915" lon="105.5302624"><ele>488.61</ele><time>2025-10-14T22:11:07.000Z</time></trkpt>
        <trkpt lat="29.2581784" lon="105.5302409"><ele>489.72</ele><time>2025-10-14T22:11:15.000Z</time></trkpt>
        <trkpt lat="29.2580853" lon="105.5302704"><ele>491.22</ele><time>2025-10-14T22:11:23.000Z</time></trkpt>
        <trkpt lat="29.2580093" lon="105.5303505"><ele>493.06</ele><time>2025-10-14T22:11:33.000Z</time></trkpt>
        <trkpt lat="29.2579617" lon="105.5304592"><ele>493.68</ele><time>2025-10-14T22:11:43.000Z</time></trkpt>
        <trkpt lat="29.2579408" lon="105.5305793"><ele>492.4</ele><time>2025-10-14T22:11:55.000Z</time></trkpt>
        <trkpt lat="29.2579161" lon="105.5307049"><ele>491.84</ele><time>2025-10-14T22:12:05.000Z</time></trkpt>
        <trkpt lat="29.2578913" lon="105.5308185"><ele>491.99</ele><time>2025-10-14T22:12:15.000Z</time></trkpt>
        <trkpt lat="29.2578814" lon="105.5309375"><ele>493.12</ele><time>2025-10-14T22:12:25.000Z</time></trkpt>
        <trkpt lat="29.2578814" lon="105.5309817"><ele>491.69</ele><time>2025-10-14T22:12:35.000Z</time></trkpt>
        <trkpt lat="29.2578817" lon="105.5310617"><ele>490.32</ele><time>2025-10-14T22:13:35.000Z</time></trkpt>
        <trkpt lat="29.25791" lon="105.5311633"><ele>490.61</ele><time>2025-10-14T22:13:43.000Z</time></trkpt>
        <trkpt lat="29.2579031" lon="105.5312777"><ele>490</ele><time>2025-10-14T22:13:55.000Z</time></trkpt>
        <trkpt lat="29.2579298" lon="105.5313892"><ele>491.08</ele><time>2025-10-14T22:14:07.000Z</time></trkpt>
        <trkpt lat="29.2579907" lon="105.5314759"><ele>492.81</ele><time>2025-10-14T22:14:19.000Z</time></trkpt>
        <trkpt lat="29.2580858" lon="105.5315288"><ele>494.7</ele><time>2025-10-14T22:14:29.000Z</time></trkpt>
        <trkpt lat="29.2581701" lon="105.531589"><ele>496.33</ele><time>2025-10-14T22:14:39.000Z</time></trkpt>
        <trkpt lat="29.2582635" lon="105.5316308"><ele>498.25</ele><time>2025-10-14T22:14:51.000Z</time></trkpt>
        <trkpt lat="29.2583529" lon="105.5316956"><ele>499.18</ele><time>2025-10-14T22:15:01.000Z</time></trkpt>
        <trkpt lat="29.2584159" lon="105.5317865"><ele>499.06</ele><time>2025-10-14T22:15:13.000Z</time></trkpt>
        <trkpt lat="29.2584577" lon="105.5318891"><ele>499.68</ele><time>2025-10-14T22:15:23.000Z</time></trkpt>
        <trkpt lat="29.2584993" lon="105.5319855"><ele>501.62</ele><time>2025-10-14T22:15:33.000Z</time></trkpt>
        <trkpt lat="29.2585401" lon="105.5320868"><ele>502.52</ele><time>2025-10-14T22:15:43.000Z</time></trkpt>
        <trkpt lat="29.2585753" lon="105.5321908"><ele>503.24</ele><time>2025-10-14T22:15:53.000Z</time></trkpt>
        <trkpt lat="29.2586153" lon="105.5322914"><ele>504.26</ele><time>2025-10-14T22:16:03.000Z</time></trkpt>
        <trkpt lat="29.2586665" lon="105.5323804"><ele>505.78</ele><time>2025-10-14T22:16:13.000Z</time></trkpt>
        <trkpt lat="29.2587456" lon="105.5324588"><ele>505.75</ele><time>2025-10-14T22:16:23.000Z</time></trkpt>
        <trkpt lat="29.2588042" lon="105.5325603"><ele>506.46</ele><time>2025-10-14T22:16:33.000Z</time></trkpt>
        <trkpt lat="29.2588085" lon="105.5326736"><ele>504.11</ele><time>2025-10-14T22:16:47.000Z</time></trkpt>
        <trkpt lat="29.2587692" lon="105.5327741"><ele>503.42</ele><time>2025-10-14T22:16:57.000Z</time></trkpt>
        <trkpt lat="29.2587271" lon="105.5328727"><ele>503.75</ele><time>2025-10-14T22:17:05.000Z</time></trkpt>
        <trkpt lat="29.2587256" lon="105.532987"><ele>504.25</ele><time>2025-10-14T22:17:13.000Z</time></trkpt>
        <trkpt lat="29.2587411" lon="105.5330972"><ele>504.18</ele><time>2025-10-14T22:17:21.000Z</time></trkpt>
        <trkpt lat="29.2587631" lon="105.5332102"><ele>504.32</ele><time>2025-10-14T22:17:29.000Z</time></trkpt>
        <trkpt lat="29.2588086" lon="105.5333164"><ele>504.35</ele><time>2025-10-14T22:17:39.000Z</time></trkpt>
        <trkpt lat="29.2588552" lon="105.5334162"><ele>503.13</ele><time>2025-10-14T22:17:49.000Z</time></trkpt>
        <trkpt lat="29.2588228" lon="105.5335001"><ele>502.43</ele><time>2025-10-14T22:17:59.000Z</time></trkpt>
        <trkpt lat="29.2587278" lon="105.5335562"><ele>502.97</ele><time>2025-10-14T22:18:09.000Z</time></trkpt>
        <trkpt lat="29.2586413" lon="105.5336244"><ele>503.33</ele><time>2025-10-14T22:18:19.000Z</time></trkpt>
        <trkpt lat="29.2585795" lon="105.5337231"><ele>501.34</ele><time>2025-10-14T22:18:29.000Z</time></trkpt>
        <trkpt lat="29.2585293" lon="105.5338245"><ele>499.69</ele><time>2025-10-14T22:18:39.000Z</time></trkpt>
        <trkpt lat="29.2584982" lon="105.5339306"><ele>498.83</ele><time>2025-10-14T22:18:49.000Z</time></trkpt>
        <trkpt lat="29.2584546" lon="105.5340299"><ele>498.3</ele><time>2025-10-14T22:18:59.000Z</time></trkpt>
        <trkpt lat="29.2583901" lon="105.534111"><ele>498.73</ele><time>2025-10-14T22:19:09.000Z</time></trkpt>
        <trkpt lat="29.2583078" lon="105.5341766"><ele>498.93</ele><time>2025-10-14T22:19:21.000Z</time></trkpt>
        <trkpt lat="29.2582289" lon="105.5342489"><ele>500.47</ele><time>2025-10-14T22:19:29.000Z</time></trkpt>
        <trkpt lat="29.2581941" lon="105.5343437"><ele>501.6</ele><time>2025-10-14T22:19:39.000Z</time></trkpt>
        <trkpt lat="29.2581661" lon="105.5344446"><ele>502.5</ele><time>2025-10-14T22:19:49.000Z</time></trkpt>
        <trkpt lat="29.2581473" lon="105.534558"><ele>503.19</ele><time>2025-10-14T22:19:57.000Z</time></trkpt>
        <trkpt lat="29.2580914" lon="105.5346663"><ele>504.48</ele><time>2025-10-14T22:20:09.000Z</time></trkpt>
        <trkpt lat="29.2580459" lon="105.5347703"><ele>506.3</ele><time>2025-10-14T22:20:17.000Z</time></trkpt>
        <trkpt lat="29.2580167" lon="105.5348775"><ele>507.8</ele><time>2025-10-14T22:20:29.000Z</time></trkpt>
        <trkpt lat="29.258005" lon="105.5349908"><ele>508.19</ele><time>2025-10-14T22:20:41.000Z</time></trkpt>
        <trkpt lat="29.2580275" lon="105.535095"><ele>507.63</ele><time>2025-10-14T22:20:53.000Z</time></trkpt>
        <trkpt lat="29.2580262" lon="105.5352017"><ele>507.79</ele><time>2025-10-14T22:21:07.000Z</time></trkpt>
        <trkpt lat="29.257996" lon="105.5352984"><ele>508.48</ele><time>2025-10-14T22:21:15.000Z</time></trkpt>
        <trkpt lat="29.2579426" lon="105.5353926"><ele>510.04</ele><time>2025-10-14T22:21:23.000Z</time></trkpt>
        <trkpt lat="29.2578685" lon="105.5354664"><ele>510.15</ele><time>2025-10-14T22:21:33.000Z</time></trkpt>
        <trkpt lat="29.257774" lon="105.5355283"><ele>510.73</ele><time>2025-10-14T22:21:45.000Z</time></trkpt>
        <trkpt lat="29.2576691" lon="105.5355796"><ele>511.79</ele><time>2025-10-14T22:21:55.000Z</time></trkpt>
        <trkpt lat="29.2575679" lon="105.5356171"><ele>512.7</ele><time>2025-10-14T22:22:05.000Z</time></trkpt>
        <trkpt lat="29.2574735" lon="105.5356509"><ele>513.43</ele><time>2025-10-14T22:22:17.000Z</time></trkpt>
        <trkpt lat="29.2574913" lon="105.5357298"><ele>514.88</ele><time>2025-10-14T22:22:27.000Z</time></trkpt>
        <trkpt lat="29.2575726" lon="105.5357975"><ele>515.19</ele><time>2025-10-14T22:22:37.000Z</time></trkpt>
        <trkpt lat="29.2576761" lon="105.5358653"><ele>514.89</ele><time>2025-10-14T22:22:45.000Z</time></trkpt>
        <trkpt lat="29.2577095" lon="105.5359803"><ele>515.37</ele><time>2025-10-14T22:22:57.000Z</time></trkpt>
        <trkpt lat="29.2577626" lon="105.536071"><ele>518.05</ele><time>2025-10-14T22:23:09.000Z</time></trkpt>
        <trkpt lat="29.2578417" lon="105.5360167"><ele>520.18</ele><time>2025-10-14T22:25:25.000Z</time></trkpt>
        <trkpt lat="29.2577533" lon="105.5360767"><ele>520.32</ele><time>2025-10-14T22:28:51.000Z</time></trkpt>
        <trkpt lat="29.25772" lon="105.5359683"><ele>519.79</ele><time>2025-10-14T22:30:25.000Z</time></trkpt>
        <trkpt lat="29.2576867" lon="105.53587"><ele>520.7</ele><time>2025-10-14T22:30:41.000Z</time></trkpt>
        <trkpt lat="29.2576251" lon="105.5357956"><ele>520.53</ele><time>2025-10-14T22:31:03.000Z</time></trkpt>
        <trkpt lat="29.2575393" lon="105.5357165"><ele>519.57</ele><time>2025-10-14T22:31:15.000Z</time></trkpt>
        <trkpt lat="29.2574671" lon="105.535631"><ele>517.95</ele><time>2025-10-14T22:31:23.000Z</time></trkpt>
        <trkpt lat="29.2573858" lon="105.5355668"><ele>517.07</ele><time>2025-10-14T22:31:31.000Z</time></trkpt>
        <trkpt lat="29.2573065" lon="105.5355118"><ele>515.66</ele><time>2025-10-14T22:31:37.000Z</time></trkpt>
        <trkpt lat="29.2572299" lon="105.5354504"><ele>513.83</ele><time>2025-10-14T22:31:45.000Z</time></trkpt>
        <trkpt lat="29.2571583" lon="105.5353842"><ele>513.17</ele><time>2025-10-14T22:31:53.000Z</time></trkpt>
        <trkpt lat="29.2570785" lon="105.5353173"><ele>512.54</ele><time>2025-10-14T22:32:01.000Z</time></trkpt>
        <trkpt lat="29.2569991" lon="105.5352416"><ele>511.88</ele><time>2025-10-14T22:32:09.000Z</time></trkpt>
        <trkpt lat="29.256929" lon="105.5351928"><ele>511.33</ele><time>2025-10-14T22:32:25.000Z</time></trkpt>
        <trkpt lat="29.2570133" lon="105.5352517"><ele>511.4</ele><time>2025-10-14T22:34:29.000Z</time></trkpt>
        <trkpt lat="29.2570867" lon="105.535315"><ele>508.48</ele><time>2025-10-14T22:40:21.000Z</time></trkpt>
        <trkpt lat="29.2571683" lon="105.535385"><ele>507.8</ele><time>2025-10-14T22:40:33.000Z</time></trkpt>
        <trkpt lat="29.2572472" lon="105.5354451"><ele>508.01</ele><time>2025-10-14T22:40:43.000Z</time></trkpt>
        <trkpt lat="29.2573217" lon="105.5355048"><ele>508.91</ele><time>2025-10-14T22:40:55.000Z</time></trkpt>
        <trkpt lat="29.2573998" lon="105.535558"><ele>508.82</ele><time>2025-10-14T22:41:05.000Z</time></trkpt>
        <trkpt lat="29.2574681" lon="105.5356328"><ele>510.06</ele><time>2025-10-14T22:41:15.000Z</time></trkpt>
        <trkpt lat="29.2574415" lon="105.5357247"><ele>510.94</ele><time>2025-10-14T22:41:27.000Z</time></trkpt>
        <trkpt lat="29.2574194" lon="105.5358358"><ele>510.88</ele><time>2025-10-14T22:41:37.000Z</time></trkpt>
        <trkpt lat="29.2574195" lon="105.5359549"><ele>510.93</ele><time>2025-10-14T22:41:51.000Z</time></trkpt>
        <trkpt lat="29.2574216" lon="105.5360726"><ele>510.23</ele><time>2025-10-14T22:42:01.000Z</time></trkpt>
        <trkpt lat="29.2574197" lon="105.536191"><ele>509.92</ele><time>2025-10-14T22:42:11.000Z</time></trkpt>
        <trkpt lat="29.2574012" lon="105.5362663"><ele>509.56</ele><time>2025-10-14T22:42:25.000Z</time></trkpt>
        <trkpt lat="29.2574019" lon="105.5361991"><ele>508.03</ele><time>2025-10-14T22:42:35.000Z</time></trkpt>
        <trkpt lat="29.2574032" lon="105.5360806"><ele>509.78</ele><time>2025-10-14T22:42:45.000Z</time></trkpt>
        <trkpt lat="29.2573916" lon="105.5359437"><ele>514.18</ele><time>2025-10-14T22:42:55.000Z</time></trkpt>
        <trkpt lat="29.2573788" lon="105.535805"><ele>517.89</ele><time>2025-10-14T22:43:03.000Z</time></trkpt>
        <trkpt lat="29.2574074" lon="105.535677"><ele>520.6</ele><time>2025-10-14T22:43:11.000Z</time></trkpt>
        <trkpt lat="29.2574916" lon="105.5356608"><ele>522.19</ele><time>2025-10-14T22:43:21.000Z</time></trkpt>
        <trkpt lat="29.2575815" lon="105.5357227"><ele>519.1</ele><time>2025-10-14T22:43:29.000Z</time></trkpt>
        <trkpt lat="29.2576781" lon="105.5357749"><ele>517.16</ele><time>2025-10-14T22:43:39.000Z</time></trkpt>
        <trkpt lat="29.257752" lon="105.5357298"><ele>517.57</ele><time>2025-10-14T22:43:49.000Z</time></trkpt>
        <trkpt lat="29.2578398" lon="105.535691"><ele>518.27</ele><time>2025-10-14T22:44:01.000Z</time></trkpt>
        <trkpt lat="29.2579268" lon="105.5357094"><ele>518.67</ele><time>2025-10-14T22:44:13.000Z</time></trkpt>
        <trkpt lat="29.2580065" lon="105.5357664"><ele>517.18</ele><time>2025-10-14T22:44:25.000Z</time></trkpt>
        <trkpt lat="29.2580772" lon="105.5358454"><ele>514.61</ele><time>2025-10-14T22:44:41.000Z</time></trkpt>
        <trkpt lat="29.2581009" lon="105.535949"><ele>511.21</ele><time>2025-10-14T22:44:55.000Z</time></trkpt>
        <trkpt lat="29.2580931" lon="105.5360586"><ele>508.45</ele><time>2025-10-14T22:45:19.000Z</time></trkpt>
        <trkpt lat="29.2580516" lon="105.5361675"><ele>507.4</ele><time>2025-10-14T22:45:35.000Z</time></trkpt>
        <trkpt lat="29.2580149" lon="105.5362818"><ele>504.39</ele><time>2025-10-14T22:46:01.000Z</time></trkpt>
        <trkpt lat="29.2579885" lon="105.5363896"><ele>503.02</ele><time>2025-10-14T22:46:14.000Z</time></trkpt>
        <trkpt lat="29.25798" lon="105.5364979"><ele>500.51</ele><time>2025-10-14T22:46:20.000Z</time></trkpt>
        <trkpt lat="29.2579346" lon="105.5365926"><ele>497.71</ele><time>2025-10-14T22:46:32.000Z</time></trkpt>
        <trkpt lat="29.2579024" lon="105.5367036"><ele>494.22</ele><time>2025-10-14T22:46:52.000Z</time></trkpt>
        <trkpt lat="29.2578603" lon="105.5368086"><ele>492.58</ele><time>2025-10-14T22:47:04.000Z</time></trkpt>
        <trkpt lat="29.2578135" lon="105.5369123"><ele>491.04</ele><time>2025-10-14T22:47:18.000Z</time></trkpt>
        <trkpt lat="29.2577881" lon="105.5370217"><ele>488.79</ele><time>2025-10-14T22:47:34.000Z</time></trkpt>
        <trkpt lat="29.2577686" lon="105.5371309"><ele>485.87</ele><time>2025-10-14T22:47:46.000Z</time></trkpt>
        <trkpt lat="29.2577491" lon="105.537246"><ele>482.61</ele><time>2025-10-14T22:47:58.000Z</time></trkpt>
        <trkpt lat="29.2577064" lon="105.537343"><ele>479.55</ele><time>2025-10-14T22:48:08.000Z</time></trkpt>
        <trkpt lat="29.2577661" lon="105.5373455"><ele>477.12</ele><time>2025-10-14T22:48:28.000Z</time></trkpt>
        <trkpt lat="29.2578456" lon="105.5372866"><ele>473.41</ele><time>2025-10-14T22:48:38.000Z</time></trkpt>
        <trkpt lat="29.2579134" lon="105.5371958"><ele>469.97</ele><time>2025-10-14T22:48:48.000Z</time></trkpt>
        <trkpt lat="29.2579996" lon="105.5371211"><ele>466.71</ele><time>2025-10-14T22:48:56.000Z</time></trkpt>
        <trkpt lat="29.2580885" lon="105.5371487"><ele>465.55</ele><time>2025-10-14T22:49:14.000Z</time></trkpt>
        <trkpt lat="29.2581317" lon="105.5372456"><ele>465.05</ele><time>2025-10-14T22:49:22.000Z</time></trkpt>
        <trkpt lat="29.2581233" lon="105.5373656"><ele>465.07</ele><time>2025-10-14T22:49:30.000Z</time></trkpt>
        <trkpt lat="29.2581218" lon="105.5374829"><ele>465.34</ele><time>2025-10-14T22:49:38.000Z</time></trkpt>
        <trkpt lat="29.2580965" lon="105.537597"><ele>464.46</ele><time>2025-10-14T22:49:48.000Z</time></trkpt>
        <trkpt lat="29.2580756" lon="105.5377065"><ele>460.78</ele><time>2025-10-14T22:49:56.000Z</time></trkpt>
        <trkpt lat="29.2580884" lon="105.5378183"><ele>457.91</ele><time>2025-10-14T22:50:14.000Z</time></trkpt>
        <trkpt lat="29.2581371" lon="105.5379231"><ele>456.05</ele><time>2025-10-14T22:50:32.000Z</time></trkpt>
        <trkpt lat="29.2582025" lon="105.5380137"><ele>454.74</ele><time>2025-10-14T22:50:42.000Z</time></trkpt>
        <trkpt lat="29.2582338" lon="105.5381283"><ele>453.3</ele><time>2025-10-14T22:50:52.000Z</time></trkpt>
        <trkpt lat="29.2582164" lon="105.5382387"><ele>452.53</ele><time>2025-10-14T22:51:02.000Z</time></trkpt>
        <trkpt lat="29.2581369" lon="105.5382704"><ele>452.77</ele><time>2025-10-14T22:51:10.000Z</time></trkpt>
        <trkpt lat="29.2580626" lon="105.5382743"><ele>453.13</ele><time>2025-10-14T22:51:28.000Z</time></trkpt>
        <trkpt lat="29.2580629" lon="105.5383424"><ele>451.74</ele><time>2025-10-14T22:51:38.000Z</time></trkpt>
        <trkpt lat="29.2581066" lon="105.5384353"><ele>450.69</ele><time>2025-10-14T22:51:48.000Z</time></trkpt>
        <trkpt lat="29.2582021" lon="105.538468"><ele>449.96</ele><time>2025-10-14T22:52:00.000Z</time></trkpt>
        <trkpt lat="29.2582901" lon="105.5384114"><ele>450.45</ele><time>2025-10-14T22:52:18.000Z</time></trkpt>
        <trkpt lat="29.258363" lon="105.5383094"><ele>448.97</ele><time>2025-10-14T22:52:30.000Z</time></trkpt>
        <trkpt lat="29.2584444" lon="105.5382118"><ele>446.7</ele><time>2025-10-14T22:52:42.000Z</time></trkpt>
        <trkpt lat="29.2585437" lon="105.5381703"><ele>442.96</ele><time>2025-10-14T22:52:52.000Z</time></trkpt>
        <trkpt lat="29.2586388" lon="105.5382098"><ele>440.65</ele><time>2025-10-14T22:53:04.000Z</time></trkpt>
        <trkpt lat="29.2587311" lon="105.5382772"><ele>439.04</ele><time>2025-10-14T22:53:14.000Z</time></trkpt>
        <trkpt lat="29.2588156" lon="105.5383407"><ele>438.12</ele><time>2025-10-14T22:53:22.000Z</time></trkpt>
        <trkpt lat="29.2589084" lon="105.5383622"><ele>438.5</ele><time>2025-10-14T22:53:34.000Z</time></trkpt>
        <trkpt lat="29.259001" lon="105.5384026"><ele>439.32</ele><time>2025-10-14T22:53:46.000Z</time></trkpt>
        <trkpt lat="29.2590079" lon="105.5384961"><ele>437.98</ele><time>2025-10-14T22:54:24.000Z</time></trkpt>
        <trkpt lat="29.258956" lon="105.5385849"><ele>435.92</ele><time>2025-10-14T22:54:36.000Z</time></trkpt>
        <trkpt lat="29.2588871" lon="105.5386788"><ele>435.05</ele><time>2025-10-14T22:54:50.000Z</time></trkpt>
        <trkpt lat="29.2588128" lon="105.5387645"><ele>435.89</ele><time>2025-10-14T22:55:06.000Z</time></trkpt>
        <trkpt lat="29.2587141" lon="105.5387734"><ele>436.8</ele><time>2025-10-14T22:55:20.000Z</time></trkpt>
        <trkpt lat="29.2586026" lon="105.5387543"><ele>436.02</ele><time>2025-10-14T22:55:34.000Z</time></trkpt>
        <trkpt lat="29.2584903" lon="105.5387478"><ele>434.94</ele><time>2025-10-14T22:55:46.000Z</time></trkpt>
        <trkpt lat="29.2583885" lon="105.5387384"><ele>433.2</ele><time>2025-10-14T22:55:56.000Z</time></trkpt>
        <trkpt lat="29.258293" lon="105.5387506"><ele>432</ele><time>2025-10-14T22:56:06.000Z</time></trkpt>
        <trkpt lat="29.2582011" lon="105.5387539"><ele>429.93</ele><time>2025-10-14T22:56:14.000Z</time></trkpt>
        <trkpt lat="29.2580964" lon="105.5387671"><ele>428.63</ele><time>2025-10-14T22:56:26.000Z</time></trkpt>
        <trkpt lat="29.2579979" lon="105.5388027"><ele>427.11</ele><time>2025-10-14T22:56:34.000Z</time></trkpt>
        <trkpt lat="29.2579247" lon="105.5388886"><ele>425.17</ele><time>2025-10-14T22:56:44.000Z</time></trkpt>
        <trkpt lat="29.2578557" lon="105.5389876"><ele>422.17</ele><time>2025-10-14T22:56:52.000Z</time></trkpt>
        <trkpt lat="29.2577906" lon="105.5390729"><ele>419.26</ele><time>2025-10-14T22:57:00.000Z</time></trkpt>
        <trkpt lat="29.2577747" lon="105.5391781"><ele>416.87</ele><time>2025-10-14T22:57:08.000Z</time></trkpt>
        <trkpt lat="29.2577748" lon="105.5392861"><ele>416.19</ele><time>2025-10-14T22:57:16.000Z</time></trkpt>
        <trkpt lat="29.2577489" lon="105.5393951"><ele>416.28</ele><time>2025-10-14T22:57:28.000Z</time></trkpt>
        <trkpt lat="29.2577585" lon="105.5395022"><ele>414.66</ele><time>2025-10-14T22:57:36.000Z</time></trkpt>
        <trkpt lat="29.2577712" lon="105.5396219"><ele>413.43</ele><time>2025-10-14T22:57:44.000Z</time></trkpt>
        <trkpt lat="29.2577694" lon="105.5397423"><ele>414.15</ele><time>2025-10-14T22:57:54.000Z</time></trkpt>
        <trkpt lat="29.2577573" lon="105.5398571"><ele>414.9</ele><time>2025-10-14T22:58:06.000Z</time></trkpt>
        <trkpt lat="29.2577366" lon="105.5399769"><ele>414.99</ele><time>2025-10-14T22:58:14.000Z</time></trkpt>
        <trkpt lat="29.2577685" lon="105.5400811"><ele>415.21</ele><time>2025-10-14T22:58:22.000Z</time></trkpt>
        <trkpt lat="29.257798" lon="105.5401893"><ele>415.2</ele><time>2025-10-14T22:58:32.000Z</time></trkpt>
        <trkpt lat="29.2578115" lon="105.5402985"><ele>414.51</ele><time>2025-10-14T22:58:42.000Z</time></trkpt>
        <trkpt lat="29.2577981" lon="105.5404158"><ele>413.78</ele><time>2025-10-14T22:58:52.000Z</time></trkpt>
        <trkpt lat="29.2577976" lon="105.5405272"><ele>412.93</ele><time>2025-10-14T22:59:00.000Z</time></trkpt>
        <trkpt lat="29.2577884" lon="105.5406449"><ele>412.31</ele><time>2025-10-14T22:59:12.000Z</time></trkpt>
        <trkpt lat="29.2577786" lon="105.5407687"><ele>411.83</ele><time>2025-10-14T22:59:22.000Z</time></trkpt>
        <trkpt lat="29.2577567" lon="105.5408807"><ele>411.78</ele><time>2025-10-14T22:59:30.000Z</time></trkpt>
        <trkpt lat="29.2577007" lon="105.5409728"><ele>412.09</ele><time>2025-10-14T22:59:40.000Z</time></trkpt>
        <trkpt lat="29.2576317" lon="105.5410568"><ele>412.95</ele><time>2025-10-14T22:59:50.000Z</time></trkpt>
        <trkpt lat="29.257539" lon="105.5410991"><ele>414.95</ele><time>2025-10-14T23:00:00.000Z</time></trkpt>
        <trkpt lat="29.2574459" lon="105.5411323"><ele>417.34</ele><time>2025-10-14T23:00:10.000Z</time></trkpt>
        <trkpt lat="29.2573525" lon="105.5411575"><ele>420.68</ele><time>2025-10-14T23:00:18.000Z</time></trkpt>
        <trkpt lat="29.2572539" lon="105.5411868"><ele>423.01</ele><time>2025-10-14T23:00:30.000Z</time></trkpt>
        <trkpt lat="29.2571591" lon="105.5412129"><ele>425.03</ele><time>2025-10-14T23:00:40.000Z</time></trkpt>
        <trkpt lat="29.2570664" lon="105.5412209"><ele>426.48</ele><time>2025-10-14T23:00:48.000Z</time></trkpt>
        <trkpt lat="29.2569746" lon="105.5412415"><ele>426.87</ele><time>2025-10-14T23:00:58.000Z</time></trkpt>
        <trkpt lat="29.2568768" lon="105.5412692"><ele>427.49</ele><time>2025-10-14T23:01:08.000Z</time></trkpt>
        <trkpt lat="29.2567892" lon="105.5413208"><ele>428.01</ele><time>2025-10-14T23:01:18.000Z</time></trkpt>
        <trkpt lat="29.2567282" lon="105.5414032"><ele>428.65</ele><time>2025-10-14T23:01:28.000Z</time></trkpt>
        <trkpt lat="29.2566978" lon="105.5415217"><ele>428.5</ele><time>2025-10-14T23:01:36.000Z</time></trkpt>
        <trkpt lat="29.2566544" lon="105.5416534"><ele>428.5</ele><time>2025-10-14T23:01:48.000Z</time></trkpt>
        <trkpt lat="29.2565899" lon="105.541749"><ele>427.25</ele><time>2025-10-14T23:01:56.000Z</time></trkpt>
        <trkpt lat="29.256502" lon="105.5418352"><ele>427.36</ele><time>2025-10-14T23:02:08.000Z</time></trkpt>
        <trkpt lat="29.2564277" lon="105.5419174"><ele>428.37</ele><time>2025-10-14T23:02:16.000Z</time></trkpt>
        <trkpt lat="29.2563638" lon="105.5420116"><ele>430.06</ele><time>2025-10-14T23:02:26.000Z</time></trkpt>
        <trkpt lat="29.2563026" lon="105.5421195"><ele>430.85</ele><time>2025-10-14T23:02:36.000Z</time></trkpt>
        <trkpt lat="29.2562632" lon="105.5422485"><ele>430.96</ele><time>2025-10-14T23:02:44.000Z</time></trkpt>
        <trkpt lat="29.2561988" lon="105.5423629"><ele>431.79</ele><time>2025-10-14T23:02:58.000Z</time></trkpt>
        <trkpt lat="29.2561138" lon="105.5424491"><ele>432.14</ele><time>2025-10-14T23:03:06.000Z</time></trkpt>
        <trkpt lat="29.2559957" lon="105.5424636"><ele>432.94</ele><time>2025-10-14T23:03:14.000Z</time></trkpt>
        <trkpt lat="29.2558756" lon="105.5424396"><ele>431.89</ele><time>2025-10-14T23:03:24.000Z</time></trkpt>
        <trkpt lat="29.2557637" lon="105.5424162"><ele>430.78</ele><time>2025-10-14T23:03:36.000Z</time></trkpt>
        <trkpt lat="29.2556738" lon="105.542354"><ele>431.99</ele><time>2025-10-14T23:03:44.000Z</time></trkpt>
        <trkpt lat="29.2555973" lon="105.5422648"><ele>432.77</ele><time>2025-10-14T23:03:52.000Z</time></trkpt>
        <trkpt lat="29.2555534" lon="105.5421493"><ele>432.09</ele><time>2025-10-14T23:04:02.000Z</time></trkpt>
        <trkpt lat="29.2555177" lon="105.5420236"><ele>431.19</ele><time>2025-10-14T23:04:12.000Z</time></trkpt>
        <trkpt lat="29.2554788" lon="105.5419124"><ele>430.68</ele><time>2025-10-14T23:04:20.000Z</time></trkpt>
        <trkpt lat="29.2554194" lon="105.5418213"><ele>430.13</ele><time>2025-10-14T23:04:28.000Z</time></trkpt>
        <trkpt lat="29.2553667" lon="105.5417617"><ele>429.99</ele><time>2025-10-14T23:04:44.000Z</time></trkpt>
        <trkpt lat="29.255276" lon="105.5417779"><ele>431.03</ele><time>2025-10-14T23:05:14.000Z</time></trkpt>
        <trkpt lat="29.2551776" lon="105.5417719"><ele>430.97</ele><time>2025-10-14T23:05:18.000Z</time></trkpt>
        <trkpt lat="29.2550872" lon="105.5417438"><ele>429.56</ele><time>2025-10-14T23:05:32.000Z</time></trkpt>
        <trkpt lat="29.2549951" lon="105.5417173"><ele>428.55</ele><time>2025-10-14T23:06:16.000Z</time></trkpt>
        <trkpt lat="29.2549115" lon="105.5416604"><ele>426.98</ele><time>2025-10-14T23:06:30.000Z</time></trkpt>
        <trkpt lat="29.25483" lon="105.5416801"><ele>425.53</ele><time>2025-10-14T23:06:48.000Z</time></trkpt>
        <trkpt lat="29.2547377" lon="105.5417133"><ele>423.32</ele><time>2025-10-14T23:07:02.000Z</time></trkpt>
        <trkpt lat="29.2546549" lon="105.5417657"><ele>421.98</ele><time>2025-10-14T23:07:12.000Z</time></trkpt>
        <trkpt lat="29.2545849" lon="105.5418401"><ele>420.7</ele><time>2025-10-14T23:07:28.000Z</time></trkpt>
        <trkpt lat="29.2545217" lon="105.541919"><ele>418.76</ele><time>2025-10-14T23:07:46.000Z</time></trkpt>
        <trkpt lat="29.2544451" lon="105.541987"><ele>416.41</ele><time>2025-10-14T23:07:58.000Z</time></trkpt>
        <trkpt lat="29.254428" lon="105.5419167"><ele>414.3</ele><time>2025-10-14T23:08:40.000Z</time></trkpt>
        <trkpt lat="29.2543589" lon="105.5418721"><ele>412.62</ele><time>2025-10-14T23:08:54.000Z</time></trkpt>
        <trkpt lat="29.2543066" lon="105.5417867"><ele>412.23</ele><time>2025-10-14T23:09:08.000Z</time></trkpt>
        <trkpt lat="29.2542228" lon="105.5417828"><ele>413.07</ele><time>2025-10-14T23:09:30.000Z</time></trkpt>
        <trkpt lat="29.2541298" lon="105.5418149"><ele>413.43</ele><time>2025-10-14T23:09:44.000Z</time></trkpt>
        <trkpt lat="29.2540261" lon="105.5418112"><ele>412.99</ele><time>2025-10-14T23:09:56.000Z</time></trkpt>
        <trkpt lat="29.2539939" lon="105.5417222"><ele>412.52</ele><time>2025-10-14T23:10:08.000Z</time></trkpt>
        <trkpt lat="29.2539626" lon="105.5417763"><ele>411.61</ele><time>2025-10-14T23:10:46.000Z</time></trkpt>
        <trkpt lat="29.253896" lon="105.5418323"><ele>410.44</ele><time>2025-10-14T23:10:56.000Z</time></trkpt>
        <trkpt lat="29.2538197" lon="105.5419126"><ele>408.23</ele><time>2025-10-14T23:11:08.000Z</time></trkpt>
        <trkpt lat="29.2537797" lon="105.5420276"><ele>405.42</ele><time>2025-10-14T23:11:20.000Z</time></trkpt>
        <trkpt lat="29.2537866" lon="105.5421462"><ele>403</ele><time>2025-10-14T23:11:30.000Z</time></trkpt>
        <trkpt lat="29.253739" lon="105.542235"><ele>399.82</ele><time>2025-10-14T23:11:42.000Z</time></trkpt>
        <trkpt lat="29.2536394" lon="105.5422359"><ele>397.44</ele><time>2025-10-14T23:11:52.000Z</time></trkpt>
        <trkpt lat="29.2535396" lon="105.5421952"><ele>395.88</ele><time>2025-10-14T23:12:02.000Z</time></trkpt>
        <trkpt lat="29.2534407" lon="105.5421656"><ele>395.16</ele><time>2025-10-14T23:12:32.000Z</time></trkpt>
        <trkpt lat="29.2533715" lon="105.5422241"><ele>392.81</ele><time>2025-10-14T23:12:44.000Z</time></trkpt>
        <trkpt lat="29.2533079" lon="105.5423192"><ele>391.13</ele><time>2025-10-14T23:12:56.000Z</time></trkpt>
        <trkpt lat="29.2532163" lon="105.5423839"><ele>388.79</ele><time>2025-10-14T23:13:04.000Z</time></trkpt>
        <trkpt lat="29.2531162" lon="105.5424423"><ele>386.47</ele><time>2025-10-14T23:13:14.000Z</time></trkpt>
        <trkpt lat="29.2530303" lon="105.5424992"><ele>384.51</ele><time>2025-10-14T23:13:22.000Z</time></trkpt>
        <trkpt lat="29.2529343" lon="105.5425331"><ele>384.03</ele><time>2025-10-14T23:13:32.000Z</time></trkpt>
        <trkpt lat="29.2528381" lon="105.5425724"><ele>382.77</ele><time>2025-10-14T23:13:40.000Z</time></trkpt>
        <trkpt lat="29.2527473" lon="105.5425964"><ele>381.71</ele><time>2025-10-14T23:13:48.000Z</time></trkpt>
        <trkpt lat="29.2526562" lon="105.5426477"><ele>378.78</ele><time>2025-10-14T23:13:58.000Z</time></trkpt>
        <trkpt lat="29.2525586" lon="105.5426937"><ele>375.82</ele><time>2025-10-14T23:14:08.000Z</time></trkpt>
        <trkpt lat="29.2524623" lon="105.5427507"><ele>372.16</ele><time>2025-10-14T23:14:26.000Z</time></trkpt>
        <trkpt lat="29.2523705" lon="105.5428202"><ele>368.09</ele><time>2025-10-14T23:14:36.000Z</time></trkpt>
        <trkpt lat="29.2522767" lon="105.5428899"><ele>365.25</ele><time>2025-10-14T23:14:46.000Z</time></trkpt>
        <trkpt lat="29.2522158" lon="105.5429748"><ele>364.33</ele><time>2025-10-14T23:14:54.000Z</time></trkpt>
        <trkpt lat="29.2521444" lon="105.5430359"><ele>364.7</ele><time>2025-10-14T23:15:04.000Z</time></trkpt>
        <trkpt lat="29.2520636" lon="105.5430834"><ele>365.6</ele><time>2025-10-14T23:15:34.000Z</time></trkpt>
        <trkpt lat="29.2519739" lon="105.5431141"><ele>365.69</ele><time>2025-10-14T23:15:46.000Z</time></trkpt>
        <trkpt lat="29.2518839" lon="105.5431436"><ele>363.67</ele><time>2025-10-14T23:16:00.000Z</time></trkpt>
        <trkpt lat="29.2517906" lon="105.5431628"><ele>359.3</ele><time>2025-10-14T23:16:12.000Z</time></trkpt>
        <trkpt lat="29.2516952" lon="105.5431855"><ele>355.13</ele><time>2025-10-14T23:16:26.000Z</time></trkpt>
        <trkpt lat="29.251602" lon="105.5432029"><ele>350.34</ele><time>2025-10-14T23:16:42.000Z</time></trkpt>
        <trkpt lat="29.2515023" lon="105.5432062"><ele>346.75</ele><time>2025-10-14T23:16:56.000Z</time></trkpt>
        <trkpt lat="29.2514153" lon="105.5432649"><ele>343.68</ele><time>2025-10-14T23:17:06.000Z</time></trkpt>
        <trkpt lat="29.2513221" lon="105.5433024"><ele>341.23</ele><time>2025-10-14T23:17:18.000Z</time></trkpt>
        <trkpt lat="29.2512362" lon="105.5433546"><ele>337.91</ele><time>2025-10-14T23:17:30.000Z</time></trkpt>
        <trkpt lat="29.2511555" lon="105.5434146"><ele>334.76</ele><time>2025-10-14T23:17:44.000Z</time></trkpt>
        <trkpt lat="29.2510775" lon="105.543484"><ele>333.75</ele><time>2025-10-14T23:17:56.000Z</time></trkpt>
        <trkpt lat="29.2509952" lon="105.543556"><ele>332.82</ele><time>2025-10-14T23:18:06.000Z</time></trkpt>
        <trkpt lat="29.2509245" lon="105.5436316"><ele>333.59</ele><time>2025-10-14T23:18:16.000Z</time></trkpt>
        <trkpt lat="29.2508783" lon="105.5437318"><ele>332.9</ele><time>2025-10-14T23:18:36.000Z</time></trkpt>
        <trkpt lat="29.2507989" lon="105.5437752"><ele>332.56</ele><time>2025-10-14T23:18:50.000Z</time></trkpt>
        <trkpt lat="29.2507121" lon="105.5438125"><ele>332.1</ele><time>2025-10-14T23:19:00.000Z</time></trkpt>
        <trkpt lat="29.2506122" lon="105.5438499"><ele>330.98</ele><time>2025-10-14T23:19:12.000Z</time></trkpt>
        <trkpt lat="29.250511" lon="105.5438311"><ele>330.09</ele><time>2025-10-14T23:19:20.000Z</time></trkpt>
        <trkpt lat="29.2504104" lon="105.5438153"><ele>331.21</ele><time>2025-10-14T23:19:28.000Z</time></trkpt>
        <trkpt lat="29.2503095" lon="105.5438077"><ele>332.41</ele><time>2025-10-14T23:19:38.000Z</time></trkpt>
        <trkpt lat="29.2502126" lon="105.5437911"><ele>331.98</ele><time>2025-10-14T23:19:48.000Z</time></trkpt>
        <trkpt lat="29.2501224" lon="105.5437666"><ele>331</ele><time>2025-10-14T23:20:02.000Z</time></trkpt>
        <trkpt lat="29.2500295" lon="105.5437688"><ele>329.28</ele><time>2025-10-14T23:20:16.000Z</time></trkpt>
        <trkpt lat="29.2499465" lon="105.5437315"><ele>327.95</ele><time>2025-10-14T23:20:26.000Z</time></trkpt>
        <trkpt lat="29.2498632" lon="105.5436912"><ele>326.68</ele><time>2025-10-14T23:20:34.000Z</time></trkpt>
        <trkpt lat="29.2497743" lon="105.5436552"><ele>325.31</ele><time>2025-10-14T23:20:44.000Z</time></trkpt>
        <trkpt lat="29.2496829" lon="105.5436619"><ele>324.28</ele><time>2025-10-14T23:20:54.000Z</time></trkpt>
        <trkpt lat="29.2495859" lon="105.5436506"><ele>323</ele><time>2025-10-14T23:21:04.000Z</time></trkpt>
        <trkpt lat="29.249482" lon="105.5436382"><ele>321.32</ele><time>2025-10-14T23:21:14.000Z</time></trkpt>
        <trkpt lat="29.2493885" lon="105.5436151"><ele>319.29</ele><time>2025-10-14T23:21:24.000Z</time></trkpt>
        <trkpt lat="29.2492994" lon="105.5435894"><ele>317.32</ele><time>2025-10-14T23:21:34.000Z</time></trkpt>
        <trkpt lat="29.2492067" lon="105.5435645"><ele>315.76</ele><time>2025-10-14T23:22:02.000Z</time></trkpt>
        <trkpt lat="29.2491385" lon="105.543489"><ele>315.22</ele><time>2025-10-14T23:22:12.000Z</time></trkpt>
        <trkpt lat="29.2490919" lon="105.5433815"><ele>314.22</ele><time>2025-10-14T23:22:22.000Z</time></trkpt>
        <trkpt lat="29.2490568" lon="105.5432676"><ele>313.61</ele><time>2025-10-14T23:22:30.000Z</time></trkpt>
        <trkpt lat="29.249024" lon="105.543151"><ele>314.55</ele><time>2025-10-14T23:22:40.000Z</time></trkpt>
        <trkpt lat="29.2490017" lon="105.5430404"><ele>316.68</ele><time>2025-10-14T23:22:50.000Z</time></trkpt>
        <trkpt lat="29.2489847" lon="105.542917"><ele>317.81</ele><time>2025-10-14T23:23:00.000Z</time></trkpt>
        <trkpt lat="29.2489711" lon="105.5427893"><ele>318.11</ele><time>2025-10-14T23:23:10.000Z</time></trkpt>
        <trkpt lat="29.2489303" lon="105.5426896"><ele>316.81</ele><time>2025-10-14T23:23:18.000Z</time></trkpt>
        <trkpt lat="29.2488951" lon="105.5425922"><ele>316.81</ele><time>2025-10-14T23:23:26.000Z</time></trkpt>
        <trkpt lat="29.2488908" lon="105.542567"><ele>317.92</ele><time>2025-10-14T23:23:40.000Z</time></trkpt>
        <trkpt lat="29.248814" lon="105.5425325"><ele>318.77</ele><time>2025-10-14T23:24:30.000Z</time></trkpt>
        <trkpt lat="29.2487144" lon="105.542534"><ele>317.54</ele><time>2025-10-14T23:25:02.000Z</time></trkpt>
        <trkpt lat="29.2486107" lon="105.5425243"><ele>313.99</ele><time>2025-10-14T23:25:18.000Z</time></trkpt>
        <trkpt lat="29.2485035" lon="105.5425402"><ele>309.82</ele><time>2025-10-14T23:25:34.000Z</time></trkpt>
        <trkpt lat="29.2483981" lon="105.5425532"><ele>305.51</ele><time>2025-10-14T23:25:46.000Z</time></trkpt>
        <trkpt lat="29.2483808" lon="105.5424706"><ele>300.13</ele><time>2025-10-14T23:26:00.000Z</time></trkpt>
        <trkpt lat="29.2483724" lon="105.5423484"><ele>294.96</ele><time>2025-10-14T23:26:12.000Z</time></trkpt>
        <trkpt lat="29.2483628" lon="105.5422304"><ele>292.52</ele><time>2025-10-14T23:26:22.000Z</time></trkpt>
        <trkpt lat="29.2482971" lon="105.5421636"><ele>291.57</ele><time>2025-10-14T23:26:32.000Z</time></trkpt>
        <trkpt lat="29.2482046" lon="105.5421217"><ele>291.19</ele><time>2025-10-14T23:26:42.000Z</time></trkpt>
        <trkpt lat="29.2481257" lon="105.5420483"><ele>290.55</ele><time>2025-10-14T23:26:54.000Z</time></trkpt>
        <trkpt lat="29.2480408" lon="105.5419826"><ele>287.04</ele><time>2025-10-14T23:27:04.000Z</time></trkpt>
        <trkpt lat="29.2479506" lon="105.5419389"><ele>283.76</ele><time>2025-10-14T23:27:12.000Z</time></trkpt>
        <trkpt lat="29.2478366" lon="105.5419221"><ele>281.84</ele><time>2025-10-14T23:27:24.000Z</time></trkpt>
        <trkpt lat="29.2477372" lon="105.5419575"><ele>280.49</ele><time>2025-10-14T23:27:32.000Z</time></trkpt>
        <trkpt lat="29.2476546" lon="105.5420324"><ele>280.36</ele><time>2025-10-14T23:27:40.000Z</time></trkpt>
        <trkpt lat="29.2475822" lon="105.542114"><ele>281.24</ele><time>2025-10-14T23:27:56.000Z</time></trkpt>
        <trkpt lat="29.2474949" lon="105.5421475"><ele>280.79</ele><time>2025-10-14T23:28:12.000Z</time></trkpt>
        <trkpt lat="29.2474038" lon="105.5421281"><ele>280.97</ele><time>2025-10-14T23:28:22.000Z</time></trkpt>
        <trkpt lat="29.247314" lon="105.5420882"><ele>281.37</ele><time>2025-10-14T23:28:32.000Z</time></trkpt>
        <trkpt lat="29.2472163" lon="105.5420631"><ele>280.87</ele><time>2025-10-14T23:28:42.000Z</time></trkpt>
        <trkpt lat="29.2471208" lon="105.5420827"><ele>280.84</ele><time>2025-10-14T23:28:52.000Z</time></trkpt>
        <trkpt lat="29.247043" lon="105.5421533"><ele>278.8</ele><time>2025-10-14T23:29:02.000Z</time></trkpt>
        <trkpt lat="29.2469579" lon="105.542149"><ele>275.53</ele><time>2025-10-14T23:29:12.000Z</time></trkpt>
        <trkpt lat="29.246888" lon="105.5420822"><ele>273.28</ele><time>2025-10-14T23:29:22.000Z</time></trkpt>
        <trkpt lat="29.2468024" lon="105.5420197"><ele>273.5</ele><time>2025-10-14T23:29:32.000Z</time></trkpt>
        <trkpt lat="29.2467127" lon="105.5419733"><ele>275.01</ele><time>2025-10-14T23:29:48.000Z</time></trkpt>
        <trkpt lat="29.246613" lon="105.5419211"><ele>275.61</ele><time>2025-10-14T23:29:56.000Z</time></trkpt>
        <trkpt lat="29.2465177" lon="105.5418771"><ele>276.85</ele><time>2025-10-14T23:30:08.000Z</time></trkpt>
        <trkpt lat="29.2464348" lon="105.5418278"><ele>277.6</ele><time>2025-10-14T23:30:14.000Z</time></trkpt>
        <trkpt lat="29.2463816" lon="105.54174"><ele>277.39</ele><time>2025-10-14T23:30:24.000Z</time></trkpt>
        <trkpt lat="29.2463187" lon="105.5416508"><ele>276.27</ele><time>2025-10-14T23:30:32.000Z</time></trkpt>
        <trkpt lat="29.2462603" lon="105.541601"><ele>275.73</ele><time>2025-10-14T23:30:48.000Z</time></trkpt>
        <trkpt lat="29.2461692" lon="105.5415655"><ele>273.48</ele><time>2025-10-14T23:31:00.000Z</time></trkpt>
        <trkpt lat="29.2460644" lon="105.5415625"><ele>271.72</ele><time>2025-10-14T23:31:12.000Z</time></trkpt>
        <trkpt lat="29.2459561" lon="105.541531"><ele>271.5</ele><time>2025-10-14T23:31:24.000Z</time></trkpt>
        <trkpt lat="29.245872" lon="105.5414552"><ele>270.34</ele><time>2025-10-14T23:31:34.000Z</time></trkpt>
        <trkpt lat="29.2458126" lon="105.5413571"><ele>269.33</ele><time>2025-10-14T23:31:44.000Z</time></trkpt>
        <trkpt lat="29.2458041" lon="105.5412371"><ele>269.19</ele><time>2025-10-14T23:31:54.000Z</time></trkpt>
        <trkpt lat="29.2457624" lon="105.5411292"><ele>268.46</ele><time>2025-10-14T23:32:04.000Z</time></trkpt>
        <trkpt lat="29.2456947" lon="105.5410458"><ele>267.75</ele><time>2025-10-14T23:32:16.000Z</time></trkpt>
        <trkpt lat="29.2456701" lon="105.5409457"><ele>267.21</ele><time>2025-10-14T23:32:26.000Z</time></trkpt>
        <trkpt lat="29.24568" lon="105.540905"><ele>265.83</ele><time>2025-10-14T23:32:36.000Z</time></trkpt>
        <trkpt lat="29.24568" lon="105.540905"><ele>265.83</ele><time>2025-10-14T23:32:50.000Z</time></trkpt>
      </trkseg>
  </trk>
</gpx>